﻿<?xml version="1.0" encoding="utf-8"?><gpx creator="Garmin Desktop App" version="1.1" xsi:schemaLocation="http://www.topografix.com/GPX/1/1 http://www.topografix.com/GPX/1/1/gpx.xsd http://www.garmin.com/xmlschemas/WaypointExtension/v1 http://www8.garmin.com/xmlschemas/WaypointExtensionv1.xsd http://www.garmin.com/xmlschemas/TrackPointExtension/v1 http://www.garmin.com/xmlschemas/TrackPointExtensionv1.xsd http://www.garmin.com/xmlschemas/GpxExtensions/v3 http://www8.garmin.com/xmlschemas/GpxExtensionsv3.xsd http://www.garmin.com/xmlschemas/ActivityExtension/v1 http://www8.garmin.com/xmlschemas/ActivityExtensionv1.xsd http://www.garmin.com/xmlschemas/AdventuresExtensions/v1 http://www8.garmin.com/xmlschemas/AdventuresExtensionv1.xsd http://www.garmin.com/xmlschemas/PressureExtension/v1 http://www.garmin.com/xmlschemas/PressureExtensionv1.xsd http://www.garmin.com/xmlschemas/TripExtensions/v1 http://www.garmin.com/xmlschemas/TripExtensionsv1.xsd http://www.garmin.com/xmlschemas/TripMetaDataExtensions/v1 http://www.garmin.com/xmlschemas/TripMetaDataExtensionsv1.xsd http://www.garmin.com/xmlschemas/ViaPointTransportationModeExtensions/v1 http://www.garmin.com/xmlschemas/ViaPointTransportationModeExtensionsv1.xsd http://www.garmin.com/xmlschemas/CreationTimeExtension/v1 http://www.garmin.com/xmlschemas/CreationTimeExtensionsv1.xsd http://www.garmin.com/xmlschemas/AccelerationExtension/v1 http://www.garmin.com/xmlschemas/AccelerationExtensionv1.xsd http://www.garmin.com/xmlschemas/PowerExtension/v1 http://www.garmin.com/xmlschemas/PowerExtensionv1.xsd http://www.garmin.com/xmlschemas/VideoExtension/v1 http://www.garmin.com/xmlschemas/VideoExtensionv1.xsd" xmlns="http://www.topografix.com/GPX/1/1" xmlns:xsi="http://www.w3.org/2001/XMLSchema-instance" xmlns:wptx1="http://www.garmin.com/xmlschemas/WaypointExtension/v1" xmlns:gpxtrx="http://www.garmin.com/xmlschemas/GpxExtensions/v3" xmlns:gpxtpx="http://www.garmin.com/xmlschemas/TrackPointExtension/v1" xmlns:gpxx="http://www.garmin.com/xmlschemas/GpxExtensions/v3" xmlns:trp="http://www.garmin.com/xmlschemas/TripExtensions/v1" xmlns:adv="http://www.garmin.com/xmlschemas/AdventuresExtensions/v1" xmlns:prs="http://www.garmin.com/xmlschemas/PressureExtension/v1" xmlns:tmd="http://www.garmin.com/xmlschemas/TripMetaDataExtensions/v1" xmlns:vptm="http://www.garmin.com/xmlschemas/ViaPointTransportationModeExtensions/v1" xmlns:ctx="http://www.garmin.com/xmlschemas/CreationTimeExtension/v1" xmlns:gpxacc="http://www.garmin.com/xmlschemas/AccelerationExtension/v1" xmlns:gpxpx="http://www.garmin.com/xmlschemas/PowerExtension/v1" xmlns:vidx1="http://www.garmin.com/xmlschemas/VideoExtension/v1">

  <metadata>
    <link href="http://www.garmin.com">
      <text>Garmin International</text>
    </link>
    <time>2023-04-16T15:19:23Z</time>
    <bounds maxlat="50.764232045039535" maxlon="4.749114504083991" minlat="50.717985648661852" minlon="4.711556285619736" />
  </metadata>

  <trk>
    <name>grez doiceau rally st georges19 km</name>
    <extensions>
      <gpxx:TrackExtension>
        <gpxx:DisplayColor>Red</gpxx:DisplayColor>
      </gpxx:TrackExtension>
    </extensions>
    <trkseg>
      <trkpt lat="50.719176381826401" lon="4.72055803053081">
        <ele>75.310000000000002</ele>
        <time>2023-04-16T09:22:07Z</time>
      </trkpt>
      <trkpt lat="50.71917830966413" lon="4.720577644184232">
        <ele>75.359999999999999</ele>
        <time>2023-04-16T09:22:08Z</time>
      </trkpt>
      <trkpt lat="50.719185601919889" lon="4.720596419647336">
        <ele>75.420000000000002</ele>
        <time>2023-04-16T09:22:09Z</time>
      </trkpt>
      <trkpt lat="50.719193648546934" lon="4.720614105463028">
        <ele>75.519999999999996</ele>
        <time>2023-04-16T09:22:10Z</time>
      </trkpt>
      <trkpt lat="50.719200940802693" lon="4.720633719116449">
        <ele>75.590000000000003</ele>
        <time>2023-04-16T09:22:11Z</time>
      </trkpt>
      <trkpt lat="50.719220470637083" lon="4.720761710777879">
        <ele>75.689999999999998</ele>
        <time>2023-04-16T09:22:17Z</time>
      </trkpt>
      <trkpt lat="50.719217201694846" lon="4.720784174278379">
        <ele>75.719999999999999</ele>
        <time>2023-04-16T09:22:18Z</time>
      </trkpt>
      <trkpt lat="50.719211669638753" lon="4.720803452655673">
        <ele>75.810000000000002</ele>
        <time>2023-04-16T09:22:19Z</time>
      </trkpt>
      <trkpt lat="50.719205969944596" lon="4.720820970833302">
        <ele>75.939999999999998</ele>
        <time>2023-04-16T09:22:20Z</time>
      </trkpt>
      <trkpt lat="50.719199851155281" lon="4.72083748318255">
        <ele>76.040000000000006</ele>
        <time>2023-04-16T09:22:21Z</time>
      </trkpt>
      <trkpt lat="50.719195157289505" lon="4.720855671912432">
        <ele>76.109999999999999</ele>
        <time>2023-04-16T09:22:22Z</time>
      </trkpt>
      <trkpt lat="50.719023663550615" lon="4.721160437911749">
        <ele>76.920000000000002</ele>
        <time>2023-04-16T09:22:41Z</time>
      </trkpt>
      <trkpt lat="50.718836998566985" lon="4.72147517837584">
        <ele>77.400000000000006</ele>
        <time>2023-04-16T09:23:00Z</time>
      </trkpt>
      <trkpt lat="50.718633569777012" lon="4.721746668219566">
        <ele>77.670000000000002</ele>
        <time>2023-04-16T09:23:18Z</time>
      </trkpt>
      <trkpt lat="50.718428799882531" lon="4.722114969044924">
        <ele>78.109999999999999</ele>
        <time>2023-04-16T09:23:40Z</time>
      </trkpt>
      <trkpt lat="50.718445479869843" lon="4.722142880782485">
        <ele>78.269999999999996</ele>
        <time>2023-04-16T09:23:52Z</time>
      </trkpt>
      <trkpt lat="50.718352105468512" lon="4.722347231581807">
        <ele>78.340000000000003</ele>
        <time>2023-04-16T09:24:06Z</time>
      </trkpt>
      <trkpt lat="50.718268873170018" lon="4.722603633999825">
        <ele>78.340000000000003</ele>
        <time>2023-04-16T09:24:23Z</time>
      </trkpt>
      <trkpt lat="50.718238949775696" lon="4.722955171018839">
        <ele>78.530000000000001</ele>
        <time>2023-04-16T09:24:41Z</time>
      </trkpt>
      <trkpt lat="50.718301143497229" lon="4.723342834040523">
        <ele>78.870000000000005</ele>
        <time>2023-04-16T09:25:01Z</time>
      </trkpt>
      <trkpt lat="50.718352776020765" lon="4.723806940019131">
        <ele>78.900000000000006</ele>
        <time>2023-04-16T09:25:23Z</time>
      </trkpt>
      <trkpt lat="50.718266777694225" lon="4.724233578890562">
        <ele>78.900000000000006</ele>
        <time>2023-04-16T09:25:44Z</time>
      </trkpt>
      <trkpt lat="50.718177175149322" lon="4.724578075110912">
        <ele>78.609999999999999</ele>
        <time>2023-04-16T09:26:04Z</time>
      </trkpt>
      <trkpt lat="50.718082627281547" lon="4.724994907155633">
        <ele>78.379999999999995</ele>
        <time>2023-04-16T09:26:25Z</time>
      </trkpt>
      <trkpt lat="50.717985648661852" lon="4.72548776306212">
        <ele>77.989999999999995</ele>
        <time>2023-04-16T09:26:49Z</time>
      </trkpt>
      <trkpt lat="50.71801976300776" lon="4.725946001708508">
        <ele>78.530000000000001</ele>
        <time>2023-04-16T09:27:10Z</time>
      </trkpt>
      <trkpt lat="50.718046501278877" lon="4.726169882342219">
        <ele>78.900000000000006</ele>
        <time>2023-04-16T09:27:20Z</time>
      </trkpt>
      <trkpt lat="50.718104755505919" lon="4.726568860933185">
        <ele>80.140000000000001</ele>
        <time>2023-04-16T09:27:40Z</time>
      </trkpt>
      <trkpt lat="50.718136774376035" lon="4.726581685245037">
        <ele>80.579999999999998</ele>
        <time>2023-04-16T09:27:57Z</time>
      </trkpt>
      <trkpt lat="50.718133421614766" lon="4.726591911166906">
        <ele>80.560000000000002</ele>
        <time>2023-04-16T09:28:19Z</time>
      </trkpt>
      <trkpt lat="50.718137361109257" lon="4.726586965844035">
        <ele>80.25</ele>
        <time>2023-04-16T09:28:48Z</time>
      </trkpt>
      <trkpt lat="50.718137696385384" lon="4.726563328877091">
        <ele>80.189999999999998</ele>
        <time>2023-04-16T09:29:12Z</time>
      </trkpt>
      <trkpt lat="50.718131577596068" lon="4.726564837619662">
        <ele>80.299999999999997</ele>
        <time>2023-04-16T09:29:30Z</time>
      </trkpt>
      <trkpt lat="50.718121184036136" lon="4.726578332483769">
        <ele>80.299999999999997</ele>
        <time>2023-04-16T09:29:45Z</time>
      </trkpt>
      <trkpt lat="50.718164853751659" lon="4.726599454879761">
        <ele>80.280000000000001</ele>
        <time>2023-04-16T09:29:53Z</time>
      </trkpt>
      <trkpt lat="50.718177258968353" lon="4.726620996370912">
        <ele>80.290000000000006</ele>
        <time>2023-04-16T09:29:55Z</time>
      </trkpt>
      <trkpt lat="50.718277338892221" lon="4.726851247251034">
        <ele>81.150000000000006</ele>
        <time>2023-04-16T09:30:09Z</time>
      </trkpt>
      <trkpt lat="50.718406671658158" lon="4.727103291079402">
        <ele>81.739999999999995</ele>
        <time>2023-04-16T09:30:26Z</time>
      </trkpt>
      <trkpt lat="50.718508344143629" lon="4.727342762053013">
        <ele>82.519999999999996</ele>
        <time>2023-04-16T09:30:39Z</time>
      </trkpt>
      <trkpt lat="50.718629295006394" lon="4.727649372071028">
        <ele>83.090000000000003</ele>
        <time>2023-04-16T09:30:56Z</time>
      </trkpt>
      <trkpt lat="50.718709090724587" lon="4.728127475827932">
        <ele>83.700000000000003</ele>
        <time>2023-04-16T09:31:19Z</time>
      </trkpt>
      <trkpt lat="50.718692494556308" lon="4.728574063628912">
        <ele>84.310000000000002</ele>
        <time>2023-04-16T09:31:39Z</time>
      </trkpt>
      <trkpt lat="50.718668522313237" lon="4.729072116315365">
        <ele>84.959999999999994</ele>
        <time>2023-04-16T09:32:01Z</time>
      </trkpt>
      <trkpt lat="50.718640778213739" lon="4.729546029120684">
        <ele>85.25</ele>
        <time>2023-04-16T09:32:23Z</time>
      </trkpt>
      <trkpt lat="50.718621918931603" lon="4.729957077652216">
        <ele>86.489999999999995</ele>
        <time>2023-04-16T09:32:43Z</time>
      </trkpt>
      <trkpt lat="50.718595432117581" lon="4.730273326858878">
        <ele>86.840000000000003</ele>
        <time>2023-04-16T09:33:00Z</time>
      </trkpt>
      <trkpt lat="50.718574142083526" lon="4.730422860011458">
        <ele>86.849999999999994</ele>
        <time>2023-04-16T09:33:09Z</time>
      </trkpt>
      <trkpt lat="50.718553857877851" lon="4.730739779770374">
        <ele>86.969999999999999</ele>
        <time>2023-04-16T09:33:25Z</time>
      </trkpt>
      <trkpt lat="50.718568526208401" lon="4.730978664010763">
        <ele>87.180000000000007</ele>
        <time>2023-04-16T09:33:38Z</time>
      </trkpt>
      <trkpt lat="50.718570873141289" lon="4.730995427817106">
        <ele>87.129999999999995</ele>
        <time>2023-04-16T09:33:39Z</time>
      </trkpt>
      <trkpt lat="50.718629127368331" lon="4.731429694220424">
        <ele>86.489999999999995</ele>
        <time>2023-04-16T09:33:59Z</time>
      </trkpt>
      <trkpt lat="50.718749407678843" lon="4.731921460479498">
        <ele>86.480000000000004</ele>
        <time>2023-04-16T09:34:21Z</time>
      </trkpt>
      <trkpt lat="50.718840267509222" lon="4.732316499575973">
        <ele>86.569999999999993</ele>
        <time>2023-04-16T09:34:40Z</time>
      </trkpt>
      <trkpt lat="50.718956021592021" lon="4.732826119288802">
        <ele>87.189999999999998</ele>
        <time>2023-04-16T09:35:01Z</time>
      </trkpt>
      <trkpt lat="50.719060963019729" lon="4.733460377901793">
        <ele>88.680000000000007</ele>
        <time>2023-04-16T09:35:17Z</time>
      </trkpt>
      <trkpt lat="50.719143943861127" lon="4.73427920602262">
        <ele>90.090000000000003</ele>
        <time>2023-04-16T09:35:36Z</time>
      </trkpt>
      <trkpt lat="50.719192391261458" lon="4.73491195589304">
        <ele>90.590000000000003</ele>
        <time>2023-04-16T09:35:51Z</time>
      </trkpt>
      <trkpt lat="50.719032716006041" lon="4.735698513686657">
        <ele>91.549999999999997</ele>
        <time>2023-04-16T09:36:09Z</time>
      </trkpt>
      <trkpt lat="50.718814032152295" lon="4.736558329313994">
        <ele>92.950000000000003</ele>
        <time>2023-04-16T09:36:29Z</time>
      </trkpt>
      <trkpt lat="50.718714622780681" lon="4.736962420865893">
        <ele>94.209999999999994</ele>
        <time>2023-04-16T09:36:40Z</time>
      </trkpt>
      <trkpt lat="50.718727698549628" lon="4.736996619030833">
        <ele>94.230000000000004</ele>
        <time>2023-04-16T09:36:41Z</time>
      </trkpt>
      <trkpt lat="50.718750329688191" lon="4.737028134986758">
        <ele>94.230000000000004</ele>
        <time>2023-04-16T09:36:42Z</time>
      </trkpt>
      <trkpt lat="50.718776229768991" lon="4.737056717276573">
        <ele>94.200000000000003</ele>
        <time>2023-04-16T09:36:43Z</time>
      </trkpt>
      <trkpt lat="50.718801124021411" lon="4.73707708530128">
        <ele>94.150000000000006</ele>
        <time>2023-04-16T09:36:44Z</time>
      </trkpt>
      <trkpt lat="50.718824928626418" lon="4.737091837450862">
        <ele>94.129999999999995</ele>
        <time>2023-04-16T09:36:45Z</time>
      </trkpt>
      <trkpt lat="50.718847140669823" lon="4.737106254324317">
        <ele>94.109999999999999</ele>
        <time>2023-04-16T09:36:46Z</time>
      </trkpt>
      <trkpt lat="50.719241257756948" lon="4.737390484660864">
        <ele>93.560000000000002</ele>
        <time>2023-04-16T09:37:01Z</time>
      </trkpt>
      <trkpt lat="50.719869816675782" lon="4.73779683932662">
        <ele>92.239999999999995</ele>
        <time>2023-04-16T09:37:25Z</time>
      </trkpt>
      <trkpt lat="50.720222778618336" lon="4.738202439621091">
        <ele>91.030000000000001</ele>
        <time>2023-04-16T09:37:41Z</time>
      </trkpt>
      <trkpt lat="50.720552606508136" lon="4.73883661441505">
        <ele>89.489999999999995</ele>
        <time>2023-04-16T09:37:59Z</time>
      </trkpt>
      <trkpt lat="50.720824180170894" lon="4.739564247429371">
        <ele>87.790000000000006</ele>
        <time>2023-04-16T09:38:18Z</time>
      </trkpt>
      <trkpt lat="50.721048312261701" lon="4.740365305915475">
        <ele>86.879999999999995</ele>
        <time>2023-04-16T09:38:38Z</time>
      </trkpt>
      <trkpt lat="50.721251321956515" lon="4.740768978372216">
        <ele>85.959999999999994</ele>
        <time>2023-04-16T09:38:51Z</time>
      </trkpt>
      <trkpt lat="50.721741914749146" lon="4.741591243073344">
        <ele>85.140000000000001</ele>
        <time>2023-04-16T09:39:13Z</time>
      </trkpt>
      <trkpt lat="50.722111305221915" lon="4.742139587178826">
        <ele>84.609999999999999</ele>
        <time>2023-04-16T09:39:30Z</time>
      </trkpt>
      <trkpt lat="50.722578093409538" lon="4.743024297058582">
        <ele>83.810000000000002</ele>
        <time>2023-04-16T09:39:53Z</time>
      </trkpt>
      <trkpt lat="50.722674736753106" lon="4.743184978142381">
        <ele>83.489999999999995</ele>
        <time>2023-04-16T09:39:59Z</time>
      </trkpt>
      <trkpt lat="50.72268663905561" lon="4.743183720856905">
        <ele>83.489999999999995</ele>
        <time>2023-04-16T09:40:00Z</time>
      </trkpt>
      <trkpt lat="50.722694769501686" lon="4.743164693936706">
        <ele>83.469999999999999</ele>
        <time>2023-04-16T09:40:01Z</time>
      </trkpt>
      <trkpt lat="50.722700133919716" lon="4.743131585419178">
        <ele>83.469999999999999</ele>
        <time>2023-04-16T09:40:02Z</time>
      </trkpt>
      <trkpt lat="50.722704492509365" lon="4.743089843541384">
        <ele>83.469999999999999</ele>
        <time>2023-04-16T09:40:03Z</time>
      </trkpt>
      <trkpt lat="50.722708012908697" lon="4.743043994531035">
        <ele>83.450000000000003</ele>
        <time>2023-04-16T09:40:04Z</time>
      </trkpt>
      <trkpt lat="50.722715137526393" lon="4.742518700659275">
        <ele>83.730000000000004</ele>
        <time>2023-04-16T09:40:15Z</time>
      </trkpt>
      <trkpt lat="50.722734164446592" lon="4.741443637758493">
        <ele>84.75</ele>
        <time>2023-04-16T09:40:38Z</time>
      </trkpt>
      <trkpt lat="50.722725782543421" lon="4.74117960780859">
        <ele>84.269999999999996</ele>
        <time>2023-04-16T09:40:52Z</time>
      </trkpt>
      <trkpt lat="50.722699295729399" lon="4.740961762145162">
        <ele>82.969999999999999</ele>
        <time>2023-04-16T09:41:12Z</time>
      </trkpt>
      <trkpt lat="50.722691919654608" lon="4.740799237042666">
        <ele>82.650000000000006</ele>
        <time>2023-04-16T09:41:43Z</time>
      </trkpt>
      <trkpt lat="50.722623020410538" lon="4.740293053910136">
        <ele>81</ele>
        <time>2023-04-16T09:42:06Z</time>
      </trkpt>
      <trkpt lat="50.722536100074649" lon="4.739773543551564">
        <ele>79.959999999999994</ele>
        <time>2023-04-16T09:42:30Z</time>
      </trkpt>
      <trkpt lat="50.722446162253618" lon="4.739268952980638">
        <ele>78.799999999999997</ele>
        <time>2023-04-16T09:42:53Z</time>
      </trkpt>
      <trkpt lat="50.722380951046944" lon="4.73902721889317">
        <ele>78.129999999999995</ele>
        <time>2023-04-16T09:43:07Z</time>
      </trkpt>
      <trkpt lat="50.722372317686677" lon="4.739010790362954">
        <ele>78.109999999999999</ele>
        <time>2023-04-16T09:43:08Z</time>
      </trkpt>
      <trkpt lat="50.722365276888013" lon="4.738985896110535">
        <ele>78.090000000000003</ele>
        <time>2023-04-16T09:43:09Z</time>
      </trkpt>
      <trkpt lat="50.722339376807213" lon="4.738587252795696">
        <ele>78.340000000000003</ele>
        <time>2023-04-16T09:43:23Z</time>
      </trkpt>
      <trkpt lat="50.722329737618566" lon="4.738136390224099">
        <ele>78.469999999999999</ele>
        <time>2023-04-16T09:43:44Z</time>
      </trkpt>
      <trkpt lat="50.722265783697367" lon="4.737747386097908">
        <ele>79.120000000000005</ele>
        <time>2023-04-16T09:44:02Z</time>
      </trkpt>
      <trkpt lat="50.722248768433928" lon="4.737439434975386">
        <ele>78.849999999999994</ele>
        <time>2023-04-16T09:44:19Z</time>
      </trkpt>
      <trkpt lat="50.722277602180839" lon="4.736958397552371">
        <ele>79.719999999999999</ele>
        <time>2023-04-16T09:44:42Z</time>
      </trkpt>
      <trkpt lat="50.722337365150452" lon="4.736494291573763">
        <ele>81.569999999999993</ele>
        <time>2023-04-16T09:45:05Z</time>
      </trkpt>
      <trkpt lat="50.722447670996189" lon="4.736101264134049">
        <ele>84.450000000000003</ele>
        <time>2023-04-16T09:45:25Z</time>
      </trkpt>
      <trkpt lat="50.722596868872643" lon="4.735704129561782">
        <ele>85.700000000000003</ele>
        <time>2023-04-16T09:45:47Z</time>
      </trkpt>
      <trkpt lat="50.722782779484987" lon="4.735276903957129">
        <ele>86.25</ele>
        <time>2023-04-16T09:46:12Z</time>
      </trkpt>
      <trkpt lat="50.722977574914694" lon="4.734850767999888">
        <ele>85.310000000000002</ele>
        <time>2023-04-16T09:46:38Z</time>
      </trkpt>
      <trkpt lat="50.723157366737723" lon="4.734441144391894">
        <ele>84.75</ele>
        <time>2023-04-16T09:47:01Z</time>
      </trkpt>
      <trkpt lat="50.723322741687298" lon="4.734452459961176">
        <ele>83.400000000000006</ele>
        <time>2023-04-16T09:47:17Z</time>
      </trkpt>
      <trkpt lat="50.723497420549393" lon="4.734739121049643">
        <ele>82.390000000000001</ele>
        <time>2023-04-16T09:47:37Z</time>
      </trkpt>
      <trkpt lat="50.72365902364254" lon="4.735022932291031">
        <ele>80.269999999999996</ele>
        <time>2023-04-16T09:47:56Z</time>
      </trkpt>
      <trkpt lat="50.723676458001137" lon="4.735046653077006">
        <ele>79.959999999999994</ele>
        <time>2023-04-16T09:47:58Z</time>
      </trkpt>
      <trkpt lat="50.723686013370752" lon="4.735057381913066">
        <ele>79.879999999999995</ele>
        <time>2023-04-16T09:47:59Z</time>
      </trkpt>
      <trkpt lat="50.723759438842535" lon="4.735225355252624">
        <ele>77.980000000000004</ele>
        <time>2023-04-16T09:48:14Z</time>
      </trkpt>
      <trkpt lat="50.723890531808138" lon="4.735432639718056">
        <ele>75.069999999999993</ele>
        <time>2023-04-16T09:48:33Z</time>
      </trkpt>
      <trkpt lat="50.724178869277239" lon="4.735682336613536">
        <ele>72.540000000000006</ele>
        <time>2023-04-16T09:49:02Z</time>
      </trkpt>
      <trkpt lat="50.724399983882904" lon="4.735912838950753">
        <ele>69.480000000000004</ele>
        <time>2023-04-16T09:49:27Z</time>
      </trkpt>
      <trkpt lat="50.724774738773704" lon="4.736225148662925">
        <ele>66.810000000000002</ele>
        <time>2023-04-16T09:49:53Z</time>
      </trkpt>
      <trkpt lat="50.725029800087214" lon="4.736459422856569">
        <ele>65.629999999999995</ele>
        <time>2023-04-16T09:50:15Z</time>
      </trkpt>
      <trkpt lat="50.725239766761661" lon="4.736544163897634">
        <ele>64.790000000000006</ele>
        <time>2023-04-16T09:50:31Z</time>
      </trkpt>
      <trkpt lat="50.725550148636103" lon="4.736722111701965">
        <ele>63.770000000000003</ele>
        <time>2023-04-16T09:50:53Z</time>
      </trkpt>
      <trkpt lat="50.725793559104204" lon="4.736992679536343">
        <ele>62.689999999999998</ele>
        <time>2023-04-16T09:51:10Z</time>
      </trkpt>
      <trkpt lat="50.725902020931244" lon="4.737174483016133">
        <ele>62.049999999999997</ele>
        <time>2023-04-16T09:51:20Z</time>
      </trkpt>
      <trkpt lat="50.725926412269473" lon="4.737197114154697">
        <ele>61.969999999999999</ele>
        <time>2023-04-16T09:51:21Z</time>
      </trkpt>
      <trkpt lat="50.726164123043418" lon="4.737462401390076">
        <ele>60.130000000000003</ele>
        <time>2023-04-16T09:51:41Z</time>
      </trkpt>
      <trkpt lat="50.726458411663771" lon="4.737574048340321">
        <ele>59.219999999999999</ele>
        <time>2023-04-16T09:51:58Z</time>
      </trkpt>
      <trkpt lat="50.72667533531785" lon="4.737689048051834">
        <ele>58.340000000000003</ele>
        <time>2023-04-16T09:52:12Z</time>
      </trkpt>
      <trkpt lat="50.726936096325517" lon="4.737785691395402">
        <ele>56.939999999999998</ele>
        <time>2023-04-16T09:52:30Z</time>
      </trkpt>
      <trkpt lat="50.727165760472417" lon="4.737848890945315">
        <ele>55.32</ele>
        <time>2023-04-16T09:52:48Z</time>
      </trkpt>
      <trkpt lat="50.72739165276289" lon="4.737849980592728">
        <ele>53.479999999999997</ele>
        <time>2023-04-16T09:53:06Z</time>
      </trkpt>
      <trkpt lat="50.727666243910789" lon="4.73794243298471">
        <ele>51.990000000000002</ele>
        <time>2023-04-16T09:53:23Z</time>
      </trkpt>
      <trkpt lat="50.727965394034982" lon="4.738015104085207">
        <ele>50.68</ele>
        <time>2023-04-16T09:53:43Z</time>
      </trkpt>
      <trkpt lat="50.728198075667024" lon="4.737984342500567">
        <ele>49.020000000000003</ele>
        <time>2023-04-16T09:53:59Z</time>
      </trkpt>
      <trkpt lat="50.728408126160502" lon="4.737930279225111">
        <ele>47.520000000000003</ele>
        <time>2023-04-16T09:54:15Z</time>
      </trkpt>
      <trkpt lat="50.728620942682028" lon="4.737790133804083">
        <ele>44.609999999999999</ele>
        <time>2023-04-16T09:54:33Z</time>
      </trkpt>
      <trkpt lat="50.728832669556141" lon="4.737660633400083">
        <ele>41.43</ele>
        <time>2023-04-16T09:54:49Z</time>
      </trkpt>
      <trkpt lat="50.729091838002205" lon="4.737571198493242">
        <ele>38.609999999999999</ele>
        <time>2023-04-16T09:55:06Z</time>
      </trkpt>
      <trkpt lat="50.729319574311376" lon="4.737755684182048">
        <ele>36.5</ele>
        <time>2023-04-16T09:55:22Z</time>
      </trkpt>
      <trkpt lat="50.729568600654602" lon="4.73796003498137">
        <ele>34.170000000000002</ele>
        <time>2023-04-16T09:55:42Z</time>
      </trkpt>
      <trkpt lat="50.729801114648581" lon="4.738086434081197">
        <ele>33.450000000000003</ele>
        <time>2023-04-16T09:55:59Z</time>
      </trkpt>
      <trkpt lat="50.730112418532372" lon="4.738127421587706">
        <ele>33.32</ele>
        <time>2023-04-16T09:56:17Z</time>
      </trkpt>
      <trkpt lat="50.730283157899976" lon="4.738252647221088">
        <ele>34.299999999999997</ele>
        <time>2023-04-16T09:56:34Z</time>
      </trkpt>
      <trkpt lat="50.730331605300307" lon="4.738561687991023">
        <ele>34.759999999999998</ele>
        <time>2023-04-16T09:56:50Z</time>
      </trkpt>
      <trkpt lat="50.730413915589452" lon="4.738979525864124">
        <ele>34.450000000000003</ele>
        <time>2023-04-16T09:57:09Z</time>
      </trkpt>
      <trkpt lat="50.730469655245543" lon="4.7390775103122">
        <ele>34.759999999999998</ele>
        <time>2023-04-16T09:57:27Z</time>
      </trkpt>
      <trkpt lat="50.730502679944038" lon="4.739162335172296">
        <ele>34.689999999999998</ele>
        <time>2023-04-16T09:57:38Z</time>
      </trkpt>
      <trkpt lat="50.73055112734437" lon="4.739370290189982">
        <ele>34.770000000000003</ele>
        <time>2023-04-16T09:57:50Z</time>
      </trkpt>
      <trkpt lat="50.730622289702296" lon="4.739737417548895">
        <ele>34.990000000000002</ele>
        <time>2023-04-16T09:58:09Z</time>
      </trkpt>
      <trkpt lat="50.730648776516318" lon="4.740082835778594">
        <ele>35.359999999999999</ele>
        <time>2023-04-16T09:58:26Z</time>
      </trkpt>
      <trkpt lat="50.730654308572412" lon="4.740191297605634">
        <ele>35.539999999999999</ele>
        <time>2023-04-16T09:58:31Z</time>
      </trkpt>
      <trkpt lat="50.730658499523997" lon="4.740212168544531">
        <ele>35.579999999999998</ele>
        <time>2023-04-16T09:58:32Z</time>
      </trkpt>
      <trkpt lat="50.730657996609807" lon="4.740232788026333">
        <ele>35.630000000000003</ele>
        <time>2023-04-16T09:58:33Z</time>
      </trkpt>
      <trkpt lat="50.730598652735353" lon="4.740587761625648">
        <ele>35.979999999999997</ele>
        <time>2023-04-16T09:58:49Z</time>
      </trkpt>
      <trkpt lat="50.730522712692618" lon="4.740834692493081">
        <ele>36.359999999999999</ele>
        <time>2023-04-16T09:59:00Z</time>
      </trkpt>
      <trkpt lat="50.730517683550715" lon="4.740854725241661">
        <ele>36.359999999999999</ele>
        <time>2023-04-16T09:59:01Z</time>
      </trkpt>
      <trkpt lat="50.730513827875257" lon="4.740875428542495">
        <ele>36.359999999999999</ele>
        <time>2023-04-16T09:59:02Z</time>
      </trkpt>
      <trkpt lat="50.730509972199798" lon="4.740895545110107">
        <ele>36.359999999999999</ele>
        <time>2023-04-16T09:59:03Z</time>
      </trkpt>
      <trkpt lat="50.730503434315324" lon="4.740916667506099">
        <ele>36.380000000000003</ele>
        <time>2023-04-16T09:59:04Z</time>
      </trkpt>
      <trkpt lat="50.730497483164072" lon="4.740936700254679">
        <ele>36.420000000000002</ele>
        <time>2023-04-16T09:59:05Z</time>
      </trkpt>
      <trkpt lat="50.730490610003471" lon="4.740955559536815">
        <ele>36.460000000000001</ele>
        <time>2023-04-16T09:59:06Z</time>
      </trkpt>
      <trkpt lat="50.730484239757061" lon="4.74097291007638">
        <ele>36.5</ele>
        <time>2023-04-16T09:59:07Z</time>
      </trkpt>
      <trkpt lat="50.730484239757061" lon="4.740992523729801">
        <ele>36.520000000000003</ele>
        <time>2023-04-16T09:59:08Z</time>
      </trkpt>
      <trkpt lat="50.730481473729014" lon="4.741011718288064">
        <ele>36.5</ele>
        <time>2023-04-16T09:59:09Z</time>
      </trkpt>
      <trkpt lat="50.730471163988113" lon="4.741054382175207">
        <ele>36.490000000000002</ele>
        <time>2023-04-16T09:59:11Z</time>
      </trkpt>
      <trkpt lat="50.730329342186451" lon="4.741446236148477">
        <ele>36.710000000000001</ele>
        <time>2023-04-16T09:59:31Z</time>
      </trkpt>
      <trkpt lat="50.730243092402816" lon="4.741731639951468">
        <ele>36.939999999999998</ele>
        <time>2023-04-16T09:59:45Z</time>
      </trkpt>
      <trkpt lat="50.730190202593803" lon="4.74207772873342">
        <ele>37.310000000000002</ele>
        <time>2023-04-16T10:00:00Z</time>
      </trkpt>
      <trkpt lat="50.73017536662519" lon="4.742525909096003">
        <ele>37.5</ele>
        <time>2023-04-16T10:00:19Z</time>
      </trkpt>
      <trkpt lat="50.730278715491295" lon="4.742960426956415">
        <ele>38.229999999999997</ele>
        <time>2023-04-16T10:00:39Z</time>
      </trkpt>
      <trkpt lat="50.730370078235865" lon="4.743330655619502">
        <ele>38.939999999999998</ele>
        <time>2023-04-16T10:00:58Z</time>
      </trkpt>
      <trkpt lat="50.730513576418161" lon="4.743721671402454">
        <ele>39.5</ele>
        <time>2023-04-16T10:01:18Z</time>
      </trkpt>
      <trkpt lat="50.730526736006141" lon="4.743774142116308">
        <ele>39.729999999999997</ele>
        <time>2023-04-16T10:01:21Z</time>
      </trkpt>
      <trkpt lat="50.730528496205807" lon="4.74379132501781">
        <ele>39.75</ele>
        <time>2023-04-16T10:01:22Z</time>
      </trkpt>
      <trkpt lat="50.730532603338361" lon="4.743808088824153">
        <ele>39.810000000000002</ele>
        <time>2023-04-16T10:01:23Z</time>
      </trkpt>
      <trkpt lat="50.730701247230172" lon="4.744172031059861">
        <ele>40.770000000000003</ele>
        <time>2023-04-16T10:01:44Z</time>
      </trkpt>
      <trkpt lat="50.730834938585758" lon="4.744498925283551">
        <ele>41.200000000000003</ele>
        <time>2023-04-16T10:02:01Z</time>
      </trkpt>
      <trkpt lat="50.730943651869893" lon="4.744697324931622">
        <ele>41.549999999999997</ele>
        <time>2023-04-16T10:02:12Z</time>
      </trkpt>
      <trkpt lat="50.730954799801111" lon="4.744716268032789">
        <ele>41.579999999999998</ele>
        <time>2023-04-16T10:02:13Z</time>
      </trkpt>
      <trkpt lat="50.731140542775393" lon="4.745088927447796">
        <ele>42.200000000000003</ele>
        <time>2023-04-16T10:02:32Z</time>
      </trkpt>
      <trkpt lat="50.731395939365029" lon="4.745583962649107">
        <ele>42.770000000000003</ele>
        <time>2023-04-16T10:02:57Z</time>
      </trkpt>
      <trkpt lat="50.731587717309594" lon="4.746037423610687">
        <ele>43.560000000000002</ele>
        <time>2023-04-16T10:03:19Z</time>
      </trkpt>
      <trkpt lat="50.731662986800075" lon="4.746489459648728">
        <ele>43.939999999999998</ele>
        <time>2023-04-16T10:03:38Z</time>
      </trkpt>
      <trkpt lat="50.731709422543645" lon="4.746593479067087">
        <ele>44.140000000000001</ele>
        <time>2023-04-16T10:03:45Z</time>
      </trkpt>
      <trkpt lat="50.731721827760339" lon="4.746594736352563">
        <ele>44.159999999999997</ele>
        <time>2023-04-16T10:03:46Z</time>
      </trkpt>
      <trkpt lat="50.731733897700906" lon="4.746590880677104">
        <ele>44.170000000000002</ele>
        <time>2023-04-16T10:03:47Z</time>
      </trkpt>
      <trkpt lat="50.731743704527617" lon="4.746583085507155">
        <ele>44.189999999999998</ele>
        <time>2023-04-16T10:03:48Z</time>
      </trkpt>
      <trkpt lat="50.73175267316401" lon="4.74657160229981">
        <ele>44.25</ele>
        <time>2023-04-16T10:03:49Z</time>
      </trkpt>
      <trkpt lat="50.73176147416234" lon="4.746556347236037">
        <ele>44.329999999999998</ele>
        <time>2023-04-16T10:03:50Z</time>
      </trkpt>
      <trkpt lat="50.731774466112256" lon="4.746500020846725">
        <ele>44.710000000000001</ele>
        <time>2023-04-16T10:03:53Z</time>
      </trkpt>
      <trkpt lat="50.731770358979702" lon="4.746478395536542">
        <ele>44.810000000000002</ele>
        <time>2023-04-16T10:03:54Z</time>
      </trkpt>
      <trkpt lat="50.731767257675529" lon="4.74645827896893">
        <ele>44.890000000000001</ele>
        <time>2023-04-16T10:03:55Z</time>
      </trkpt>
      <trkpt lat="50.731769856065512" lon="4.746441431343556">
        <ele>44.950000000000003</ele>
        <time>2023-04-16T10:03:56Z</time>
      </trkpt>
      <trkpt lat="50.731775304302573" lon="4.746423829346895">
        <ele>45.009999999999998</ele>
        <time>2023-04-16T10:03:57Z</time>
      </trkpt>
      <trkpt lat="50.731777735054493" lon="4.746405892074108">
        <ele>45.109999999999999</ele>
        <time>2023-04-16T10:03:58Z</time>
      </trkpt>
      <trkpt lat="50.731781423091888" lon="4.746388038620353">
        <ele>45.229999999999997</ele>
        <time>2023-04-16T10:03:59Z</time>
      </trkpt>
      <trkpt lat="50.731785027310252" lon="4.746367502957583">
        <ele>45.359999999999999</ele>
        <time>2023-04-16T10:04:00Z</time>
      </trkpt>
      <trkpt lat="50.731789218261838" lon="4.746345793828368">
        <ele>45.479999999999997</ele>
        <time>2023-04-16T10:04:01Z</time>
      </trkpt>
      <trkpt lat="50.731790810823441" lon="4.746014373376966">
        <ele>46.640000000000001</ele>
        <time>2023-04-16T10:04:16Z</time>
      </trkpt>
      <trkpt lat="50.731657538563013" lon="4.745498299598694">
        <ele>48.609999999999999</ele>
        <time>2023-04-16T10:04:39Z</time>
      </trkpt>
      <trkpt lat="50.731501635164022" lon="4.745038133114576">
        <ele>50.600000000000001</ele>
        <time>2023-04-16T10:05:01Z</time>
      </trkpt>
      <trkpt lat="50.731411026790738" lon="4.744617193937302">
        <ele>53.109999999999999</ele>
        <time>2023-04-16T10:05:21Z</time>
      </trkpt>
      <trkpt lat="50.731373643502593" lon="4.74421251565218">
        <ele>55.840000000000003</ele>
        <time>2023-04-16T10:05:40Z</time>
      </trkpt>
      <trkpt lat="50.731332823634148" lon="4.743917975574732">
        <ele>57.770000000000003</ele>
        <time>2023-04-16T10:05:54Z</time>
      </trkpt>
      <trkpt lat="50.731239868327975" lon="4.74359929561615">
        <ele>59.880000000000003</ele>
        <time>2023-04-16T10:06:09Z</time>
      </trkpt>
      <trkpt lat="50.731237856671214" lon="4.743579179048538">
        <ele>60.009999999999998</ele>
        <time>2023-04-16T10:06:10Z</time>
      </trkpt>
      <trkpt lat="50.731237353757024" lon="4.743559900671244">
        <ele>60.18</ele>
        <time>2023-04-16T10:06:11Z</time>
      </trkpt>
      <trkpt lat="50.731233330443501" lon="4.743538862094283">
        <ele>60.380000000000003</ele>
        <time>2023-04-16T10:06:12Z</time>
      </trkpt>
      <trkpt lat="50.731227546930313" lon="4.74351572804153">
        <ele>60.609999999999999</ele>
        <time>2023-04-16T10:06:13Z</time>
      </trkpt>
      <trkpt lat="50.731223523616791" lon="4.743491420522332">
        <ele>60.840000000000003</ele>
        <time>2023-04-16T10:06:14Z</time>
      </trkpt>
      <trkpt lat="50.731222433969378" lon="4.743466526269913">
        <ele>61.039999999999999</ele>
        <time>2023-04-16T10:06:15Z</time>
      </trkpt>
      <trkpt lat="50.73122201487422" lon="4.74344439804554">
        <ele>61.200000000000003</ele>
        <time>2023-04-16T10:06:16Z</time>
      </trkpt>
      <trkpt lat="50.731223523616791" lon="4.743422186002135">
        <ele>61.340000000000003</ele>
        <time>2023-04-16T10:06:17Z</time>
      </trkpt>
      <trkpt lat="50.731227630749345" lon="4.743399806320667">
        <ele>61.479999999999997</ele>
        <time>2023-04-16T10:06:18Z</time>
      </trkpt>
      <trkpt lat="50.731396693736315" lon="4.743340630084276">
        <ele>62.880000000000003</ele>
        <time>2023-04-16T10:06:31Z</time>
      </trkpt>
      <trkpt lat="50.731652677059174" lon="4.743418917059898">
        <ele>64.629999999999995</ele>
        <time>2023-04-16T10:06:51Z</time>
      </trkpt>
      <trkpt lat="50.731661813333631" lon="4.743424784392119">
        <ele>65.319999999999993</ele>
        <time>2023-04-16T10:07:06Z</time>
      </trkpt>
      <trkpt lat="50.731658712029457" lon="4.743418749421835">
        <ele>65.150000000000006</ele>
        <time>2023-04-16T10:07:35Z</time>
      </trkpt>
      <trkpt lat="50.731656868010759" lon="4.743424532935023">
        <ele>65.219999999999999</ele>
        <time>2023-04-16T10:07:57Z</time>
      </trkpt>
      <trkpt lat="50.731655694544315" lon="4.743443140760064">
        <ele>65.109999999999999</ele>
        <time>2023-04-16T10:08:19Z</time>
      </trkpt>
      <trkpt lat="50.731653934344649" lon="4.743442973122001">
        <ele>65.090000000000003</ele>
        <time>2023-04-16T10:08:53Z</time>
      </trkpt>
      <trkpt lat="50.731654353439808" lon="4.743445906788111">
        <ele>64.870000000000005</ele>
        <time>2023-04-16T10:09:26Z</time>
      </trkpt>
      <trkpt lat="50.731706069782376" lon="4.743463844060898">
        <ele>64.870000000000005</ele>
        <time>2023-04-16T10:09:51Z</time>
      </trkpt>
      <trkpt lat="50.731984013691545" lon="4.743608934804797">
        <ele>65.379999999999995</ele>
        <time>2023-04-16T10:10:13Z</time>
      </trkpt>
      <trkpt lat="50.732197249308228" lon="4.743749164044857">
        <ele>66.420000000000002</ele>
        <time>2023-04-16T10:10:29Z</time>
      </trkpt>
      <trkpt lat="50.732387183234096" lon="4.743886040523648">
        <ele>67.060000000000002</ele>
        <time>2023-04-16T10:10:48Z</time>
      </trkpt>
      <trkpt lat="50.732636628672481" lon="4.743946474045515">
        <ele>67.590000000000003</ele>
        <time>2023-04-16T10:11:05Z</time>
      </trkpt>
      <trkpt lat="50.732819689437747" lon="4.743979079648852">
        <ele>67.890000000000001</ele>
        <time>2023-04-16T10:11:19Z</time>
      </trkpt>
      <trkpt lat="50.733087155967951" lon="4.744008248671889">
        <ele>68.480000000000004</ele>
        <time>2023-04-16T10:11:37Z</time>
      </trkpt>
      <trkpt lat="50.733313132077456" lon="4.744056528434157">
        <ele>69.170000000000002</ele>
        <time>2023-04-16T10:11:55Z</time>
      </trkpt>
      <trkpt lat="50.733617646619678" lon="4.744052421301603">
        <ele>70.859999999999999</ele>
        <time>2023-04-16T10:12:14Z</time>
      </trkpt>
      <trkpt lat="50.733795594424009" lon="4.74404445849359">
        <ele>72.510000000000005</ele>
        <time>2023-04-16T10:12:30Z</time>
      </trkpt>
      <trkpt lat="50.733985109254718" lon="4.744056193158031">
        <ele>74.189999999999998</ele>
        <time>2023-04-16T10:12:44Z</time>
      </trkpt>
      <trkpt lat="50.734303286299109" lon="4.744079662486911">
        <ele>76.810000000000002</ele>
        <time>2023-04-16T10:13:04Z</time>
      </trkpt>
      <trkpt lat="50.734570836648345" lon="4.744156273081899">
        <ele>76.799999999999997</ele>
        <time>2023-04-16T10:13:20Z</time>
      </trkpt>
      <trkpt lat="50.735080456361175" lon="4.744340004399419">
        <ele>75.530000000000001</ele>
        <time>2023-04-16T10:13:35Z</time>
      </trkpt>
      <trkpt lat="50.735857458785176" lon="4.744773097336292">
        <ele>75.280000000000001</ele>
        <time>2023-04-16T10:13:56Z</time>
      </trkpt>
      <trkpt lat="50.736493980512023" lon="4.745121700689197">
        <ele>76.540000000000006</ele>
        <time>2023-04-16T10:14:15Z</time>
      </trkpt>
      <trkpt lat="50.737061435356736" lon="4.745516907423735">
        <ele>78.969999999999999</ele>
        <time>2023-04-16T10:14:33Z</time>
      </trkpt>
      <trkpt lat="50.737493187189102" lon="4.745864504948258">
        <ele>80.189999999999998</ele>
        <time>2023-04-16T10:14:47Z</time>
      </trkpt>
      <trkpt lat="50.738222328945994" lon="4.74615627899766">
        <ele>81.829999999999998</ele>
        <time>2023-04-16T10:15:08Z</time>
      </trkpt>
      <trkpt lat="50.738881649449468" lon="4.746381836012006">
        <ele>82.090000000000003</ele>
        <time>2023-04-16T10:15:27Z</time>
      </trkpt>
      <trkpt lat="50.739192785695195" lon="4.746491387486458">
        <ele>81.799999999999997</ele>
        <time>2023-04-16T10:15:42Z</time>
      </trkpt>
      <trkpt lat="50.739491432905197" lon="4.746622061356902">
        <ele>80.319999999999993</ele>
        <time>2023-04-16T10:16:04Z</time>
      </trkpt>
      <trkpt lat="50.739751858636737" lon="4.746720464900136">
        <ele>79.269999999999996</ele>
        <time>2023-04-16T10:16:22Z</time>
      </trkpt>
      <trkpt lat="50.740076070651412" lon="4.746992876753211">
        <ele>79.540000000000006</ele>
        <time>2023-04-16T10:16:46Z</time>
      </trkpt>
      <trkpt lat="50.740376058965921" lon="4.747281381860375">
        <ele>78.900000000000006</ele>
        <time>2023-04-16T10:17:09Z</time>
      </trkpt>
      <trkpt lat="50.740662384778261" lon="4.747473662719131">
        <ele>78.370000000000005</ele>
        <time>2023-04-16T10:17:30Z</time>
      </trkpt>
      <trkpt lat="50.740733379498124" lon="4.747520266100764">
        <ele>78.269999999999996</ele>
        <time>2023-04-16T10:17:45Z</time>
      </trkpt>
      <trkpt lat="50.740808816626668" lon="4.747554212808609">
        <ele>78.069999999999993</ele>
        <time>2023-04-16T10:17:58Z</time>
      </trkpt>
      <trkpt lat="50.740918703377247" lon="4.747569300234318">
        <ele>77.650000000000006</ele>
        <time>2023-04-16T10:18:12Z</time>
      </trkpt>
      <trkpt lat="50.741078713908792" lon="4.747716654092073">
        <ele>77.290000000000006</ele>
        <time>2023-04-16T10:18:27Z</time>
      </trkpt>
      <trkpt lat="50.741379288956523" lon="4.748012702912092">
        <ele>76.680000000000007</ele>
        <time>2023-04-16T10:18:51Z</time>
      </trkpt>
      <trkpt lat="50.741619430482388" lon="4.748177491128445">
        <ele>76.25</ele>
        <time>2023-04-16T10:19:09Z</time>
      </trkpt>
      <trkpt lat="50.741914724931121" lon="4.748466331511736">
        <ele>76.129999999999995</ele>
        <time>2023-04-16T10:19:32Z</time>
      </trkpt>
      <trkpt lat="50.742235668003559" lon="4.748800853267312">
        <ele>75.920000000000002</ele>
        <time>2023-04-16T10:19:57Z</time>
      </trkpt>
      <trkpt lat="50.742529621347785" lon="4.749114504083991">
        <ele>75.469999999999999</ele>
        <time>2023-04-16T10:20:21Z</time>
      </trkpt>
      <trkpt lat="50.742692900821567" lon="4.749063877388835">
        <ele>75.25</ele>
        <time>2023-04-16T10:20:36Z</time>
      </trkpt>
      <trkpt lat="50.74274092912674" lon="4.748465912416577">
        <ele>75.510000000000005</ele>
        <time>2023-04-16T10:20:56Z</time>
      </trkpt>
      <trkpt lat="50.742816366255283" lon="4.747533677145839">
        <ele>74.939999999999998</ele>
        <time>2023-04-16T10:21:09Z</time>
      </trkpt>
      <trkpt lat="50.742941256612539" lon="4.745937343686819">
        <ele>74.349999999999994</ele>
        <time>2023-04-16T10:21:28Z</time>
      </trkpt>
      <trkpt lat="50.743062710389495" lon="4.74443974904716">
        <ele>73.829999999999998</ele>
        <time>2023-04-16T10:21:48Z</time>
      </trkpt>
      <trkpt lat="50.743093388155103" lon="4.744230285286903">
        <ele>72.269999999999996</ele>
        <time>2023-04-16T10:21:58Z</time>
      </trkpt>
      <trkpt lat="50.743185086175799" lon="4.743818985298276">
        <ele>69.780000000000001</ele>
        <time>2023-04-16T10:22:16Z</time>
      </trkpt>
      <trkpt lat="50.743309389799833" lon="4.743271144106984">
        <ele>67.349999999999994</ele>
        <time>2023-04-16T10:22:43Z</time>
      </trkpt>
      <trkpt lat="50.74334685690701" lon="4.743031924590468">
        <ele>66.599999999999994</ele>
        <time>2023-04-16T10:22:56Z</time>
      </trkpt>
      <trkpt lat="50.743417264893651" lon="4.74250721745193">
        <ele>66.799999999999997</ele>
        <time>2023-04-16T10:23:20Z</time>
      </trkpt>
      <trkpt lat="50.743477866053581" lon="4.741985527798533">
        <ele>67.290000000000006</ele>
        <time>2023-04-16T10:23:42Z</time>
      </trkpt>
      <trkpt lat="50.743533438071609" lon="4.741503149271011">
        <ele>66.180000000000007</ele>
        <time>2023-04-16T10:24:02Z</time>
      </trkpt>
      <trkpt lat="50.743644833564758" lon="4.741170555353165">
        <ele>65.840000000000003</ele>
        <time>2023-04-16T10:24:20Z</time>
      </trkpt>
      <trkpt lat="50.74374751187861" lon="4.740756992250681">
        <ele>64.900000000000006</ele>
        <time>2023-04-16T10:24:38Z</time>
      </trkpt>
      <trkpt lat="50.743746254593134" lon="4.740724638104439">
        <ele>64.890000000000001</ele>
        <time>2023-04-16T10:24:39Z</time>
      </trkpt>
      <trkpt lat="50.743745416402817" lon="4.740694966167212">
        <ele>64.849999999999994</ele>
        <time>2023-04-16T10:24:40Z</time>
      </trkpt>
      <trkpt lat="50.743795288726687" lon="4.740355666726828">
        <ele>64.799999999999997</ele>
        <time>2023-04-16T10:24:53Z</time>
      </trkpt>
      <trkpt lat="50.743802664801478" lon="4.740330688655376">
        <ele>64.769999999999996</ele>
        <time>2023-04-16T10:24:54Z</time>
      </trkpt>
      <trkpt lat="50.743892686441541" lon="4.739911928772926">
        <ele>64.950000000000003</ele>
        <time>2023-04-16T10:25:12Z</time>
      </trkpt>
      <trkpt lat="50.7439517788589" lon="4.739703889936209">
        <ele>64.790000000000006</ele>
        <time>2023-04-16T10:25:22Z</time>
      </trkpt>
      <trkpt lat="50.744039453566074" lon="4.739223103970289">
        <ele>65.099999999999994</ele>
        <time>2023-04-16T10:25:43Z</time>
      </trkpt>
      <trkpt lat="50.744122015312314" lon="4.738830579444766">
        <ele>65.219999999999999</ele>
        <time>2023-04-16T10:26:00Z</time>
      </trkpt>
      <trkpt lat="50.744240703061223" lon="4.73833822645247">
        <ele>65.579999999999998</ele>
        <time>2023-04-16T10:26:21Z</time>
      </trkpt>
      <trkpt lat="50.744344890117645" lon="4.737950395792723">
        <ele>66.180000000000007</ele>
        <time>2023-04-16T10:26:39Z</time>
      </trkpt>
      <trkpt lat="50.744426613673568" lon="4.737689048051834">
        <ele>66.709999999999994</ele>
        <time>2023-04-16T10:26:54Z</time>
      </trkpt>
      <trkpt lat="50.744514539837837" lon="4.737314041703939">
        <ele>67.700000000000003</ele>
        <time>2023-04-16T10:27:10Z</time>
      </trkpt>
      <trkpt lat="50.744624510407448" lon="4.736869130283594">
        <ele>68.930000000000007</ele>
        <time>2023-04-16T10:27:29Z</time>
      </trkpt>
      <trkpt lat="50.744663653895259" lon="4.736625719815493">
        <ele>69.420000000000002</ele>
        <time>2023-04-16T10:27:38Z</time>
      </trkpt>
      <trkpt lat="50.744669437408447" lon="4.736599149182439">
        <ele>69.439999999999998</ele>
        <time>2023-04-16T10:27:39Z</time>
      </trkpt>
      <trkpt lat="50.744673879817128" lon="4.736573835834861">
        <ele>69.5</ele>
        <time>2023-04-16T10:27:40Z</time>
      </trkpt>
      <trkpt lat="50.744678992778063" lon="4.736549276858568">
        <ele>69.599999999999994</ele>
        <time>2023-04-16T10:27:41Z</time>
      </trkpt>
      <trkpt lat="50.744686033576727" lon="4.73652295768261">
        <ele>69.620000000000005</ele>
        <time>2023-04-16T10:27:42Z</time>
      </trkpt>
      <trkpt lat="50.744692655280232" lon="4.736497392877936">
        <ele>69.629999999999995</ele>
        <time>2023-04-16T10:27:43Z</time>
      </trkpt>
      <trkpt lat="50.744716292247176" lon="4.736030185595155">
        <ele>69.909999999999997</ele>
        <time>2023-04-16T10:28:03Z</time>
      </trkpt>
      <trkpt lat="50.744721908122301" lon="4.73598500713706">
        <ele>70.170000000000002</ele>
        <time>2023-04-16T10:28:20Z</time>
      </trkpt>
      <trkpt lat="50.744716124609113" lon="4.736001184210181">
        <ele>69.989999999999995</ele>
        <time>2023-04-16T10:28:39Z</time>
      </trkpt>
      <trkpt lat="50.744733978062868" lon="4.736000094562769">
        <ele>69.150000000000006</ele>
        <time>2023-04-16T10:28:58Z</time>
      </trkpt>
      <trkpt lat="50.744700953364372" lon="4.735974529758096">
        <ele>69.920000000000002</ele>
        <time>2023-04-16T10:29:12Z</time>
      </trkpt>
      <trkpt lat="50.744705060496926" lon="4.735933877527714">
        <ele>70.090000000000003</ele>
        <time>2023-04-16T10:29:30Z</time>
      </trkpt>
      <trkpt lat="50.744712771847844" lon="4.735922981053591">
        <ele>70.090000000000003</ele>
        <time>2023-04-16T10:29:31Z</time>
      </trkpt>
      <trkpt lat="50.744723165407777" lon="4.735916526988149">
        <ele>70.120000000000005</ele>
        <time>2023-04-16T10:29:32Z</time>
      </trkpt>
      <trkpt lat="50.744735319167376" lon="4.735913006588817">
        <ele>70.120000000000005</ele>
        <time>2023-04-16T10:29:33Z</time>
      </trkpt>
      <trkpt lat="50.744748394936323" lon="4.735913509503007">
        <ele>70.060000000000002</ele>
        <time>2023-04-16T10:29:34Z</time>
      </trkpt>
      <trkpt lat="50.744761470705271" lon="4.735916778445244">
        <ele>70.019999999999996</ele>
        <time>2023-04-16T10:29:35Z</time>
      </trkpt>
      <trkpt lat="50.745077636092901" lon="4.73603043705225">
        <ele>69.390000000000001</ele>
        <time>2023-04-16T10:29:57Z</time>
      </trkpt>
      <trkpt lat="50.745388520881534" lon="4.736146861687303">
        <ele>69.530000000000001</ele>
        <time>2023-04-16T10:30:17Z</time>
      </trkpt>
      <trkpt lat="50.745707117021084" lon="4.73626546561718">
        <ele>69.819999999999993</ele>
        <time>2023-04-16T10:30:39Z</time>
      </trkpt>
      <trkpt lat="50.74596737511456" lon="4.736361438408494">
        <ele>69.790000000000006</ele>
        <time>2023-04-16T10:30:57Z</time>
      </trkpt>
      <trkpt lat="50.74630600400269" lon="4.736469816416502">
        <ele>70.189999999999998</ele>
        <time>2023-04-16T10:31:20Z</time>
      </trkpt>
      <trkpt lat="50.746716801077127" lon="4.736581211909652">
        <ele>69.950000000000003</ele>
        <time>2023-04-16T10:31:47Z</time>
      </trkpt>
      <trkpt lat="50.747046377509832" lon="4.736710544675589">
        <ele>69.590000000000003</ele>
        <time>2023-04-16T10:32:06Z</time>
      </trkpt>
      <trkpt lat="50.747461533173919" lon="4.736847504973412">
        <ele>69.890000000000001</ele>
        <time>2023-04-16T10:32:20Z</time>
      </trkpt>
      <trkpt lat="50.748071316629648" lon="4.737033415585756">
        <ele>70.450000000000003</ele>
        <time>2023-04-16T10:32:39Z</time>
      </trkpt>
      <trkpt lat="50.748659390956163" lon="4.737215219065547">
        <ele>71.069999999999993</ele>
        <time>2023-04-16T10:32:57Z</time>
      </trkpt>
      <trkpt lat="50.749475369229913" lon="4.737464748322964">
        <ele>70.599999999999994</ele>
        <time>2023-04-16T10:33:19Z</time>
      </trkpt>
      <trkpt lat="50.750264944508672" lon="4.737720061093569">
        <ele>70.079999999999998</ele>
        <time>2023-04-16T10:33:41Z</time>
      </trkpt>
      <trkpt lat="50.751063907518983" lon="4.737984929233789">
        <ele>69.569999999999993</ele>
        <time>2023-04-16T10:34:03Z</time>
      </trkpt>
      <trkpt lat="50.751605797559023" lon="4.738155333325267">
        <ele>68.950000000000003</ele>
        <time>2023-04-16T10:34:18Z</time>
      </trkpt>
      <trkpt lat="50.752291437238455" lon="4.738392625004053">
        <ele>69.549999999999997</ele>
        <time>2023-04-16T10:34:37Z</time>
      </trkpt>
      <trkpt lat="50.75307690538466" lon="4.738662773743272">
        <ele>69.170000000000002</ele>
        <time>2023-04-16T10:34:58Z</time>
      </trkpt>
      <trkpt lat="50.753860613331199" lon="4.739074492827058">
        <ele>67.640000000000001</ele>
        <time>2023-04-16T10:35:18Z</time>
      </trkpt>
      <trkpt lat="50.754580032080412" lon="4.73944790661335">
        <ele>66.680000000000007</ele>
        <time>2023-04-16T10:35:36Z</time>
      </trkpt>
      <trkpt lat="50.755227617919445" lon="4.73977429792285">
        <ele>66.719999999999999</ele>
        <time>2023-04-16T10:35:53Z</time>
      </trkpt>
      <trkpt lat="50.755632128566504" lon="4.739979654550552">
        <ele>66.530000000000001</ele>
        <time>2023-04-16T10:36:09Z</time>
      </trkpt>
      <trkpt lat="50.75590462423861" lon="4.740122733637691">
        <ele>65.939999999999998</ele>
        <time>2023-04-16T10:36:29Z</time>
      </trkpt>
      <trkpt lat="50.755936140194535" lon="4.740169588476419">
        <ele>65.930000000000007</ele>
        <time>2023-04-16T10:36:36Z</time>
      </trkpt>
      <trkpt lat="50.755943600088358" lon="4.740184592083097">
        <ele>65.959999999999994</ele>
        <time>2023-04-16T10:36:37Z</time>
      </trkpt>
      <trkpt lat="50.755953323096037" lon="4.74019699729979">
        <ele>65.959999999999994</ele>
        <time>2023-04-16T10:36:38Z</time>
      </trkpt>
      <trkpt lat="50.755963968113065" lon="4.740208061411977">
        <ele>65.959999999999994</ele>
        <time>2023-04-16T10:36:39Z</time>
      </trkpt>
      <trkpt lat="50.755976205691695" lon="4.740218203514814">
        <ele>65.959999999999994</ele>
        <time>2023-04-16T10:36:40Z</time>
      </trkpt>
      <trkpt lat="50.756125822663307" lon="4.740367317572236">
        <ele>65.920000000000002</ele>
        <time>2023-04-16T10:36:53Z</time>
      </trkpt>
      <trkpt lat="50.756136383861303" lon="4.740362707525492">
        <ele>65.909999999999997</ele>
        <time>2023-04-16T10:36:54Z</time>
      </trkpt>
      <trkpt lat="50.756145436316729" lon="4.740350302308798">
        <ele>65.900000000000006</ele>
        <time>2023-04-16T10:36:55Z</time>
      </trkpt>
      <trkpt lat="50.7561503816396" lon="4.740329934284091">
        <ele>65.900000000000006</ele>
        <time>2023-04-16T10:36:56Z</time>
      </trkpt>
      <trkpt lat="50.756150214001536" lon="4.740307973697782">
        <ele>65.900000000000006</ele>
        <time>2023-04-16T10:36:57Z</time>
      </trkpt>
      <trkpt lat="50.756147364154458" lon="4.74028492346406">
        <ele>65.920000000000002</ele>
        <time>2023-04-16T10:36:58Z</time>
      </trkpt>
      <trkpt lat="50.75614258646965" lon="4.740261705592275">
        <ele>65.930000000000007</ele>
        <time>2023-04-16T10:36:59Z</time>
      </trkpt>
      <trkpt lat="50.756137138232589" lon="4.740237398073077">
        <ele>65.939999999999998</ele>
        <time>2023-04-16T10:37:00Z</time>
      </trkpt>
      <trkpt lat="50.755994729697704" lon="4.739531390368938">
        <ele>65.959999999999994</ele>
        <time>2023-04-16T10:37:28Z</time>
      </trkpt>
      <trkpt lat="50.756099419668317" lon="4.739079521968961">
        <ele>65.950000000000003</ele>
        <time>2023-04-16T10:37:48Z</time>
      </trkpt>
      <trkpt lat="50.756278624758124" lon="4.738558838143945">
        <ele>66.079999999999998</ele>
        <time>2023-04-16T10:38:12Z</time>
      </trkpt>
      <trkpt lat="50.756424637511373" lon="4.738123901188374">
        <ele>66.290000000000006</ele>
        <time>2023-04-16T10:38:33Z</time>
      </trkpt>
      <trkpt lat="50.756573835387826" lon="4.737644959241152">
        <ele>64.989999999999995</ele>
        <time>2023-04-16T10:38:56Z</time>
      </trkpt>
      <trkpt lat="50.756689002737403" lon="4.73731848411262">
        <ele>64.299999999999997</ele>
        <time>2023-04-16T10:39:17Z</time>
      </trkpt>
      <trkpt lat="50.756692690774798" lon="4.737275904044509">
        <ele>64.170000000000002</ele>
        <time>2023-04-16T10:39:48Z</time>
      </trkpt>
      <trkpt lat="50.756693780422211" lon="4.73725687712431">
        <ele>64.170000000000002</ele>
        <time>2023-04-16T10:39:49Z</time>
      </trkpt>
      <trkpt lat="50.756809031590819" lon="4.736845241859555">
        <ele>63.950000000000003</ele>
        <time>2023-04-16T10:40:11Z</time>
      </trkpt>
      <trkpt lat="50.756834428757429" lon="4.736759578809142">
        <ele>63.939999999999998</ele>
        <time>2023-04-16T10:40:25Z</time>
      </trkpt>
      <trkpt lat="50.756960408762097" lon="4.736377112567425">
        <ele>63.859999999999999</ele>
        <time>2023-04-16T10:40:47Z</time>
      </trkpt>
      <trkpt lat="50.757088148966432" lon="4.736013002693653">
        <ele>63.659999999999997</ele>
        <time>2023-04-16T10:41:06Z</time>
      </trkpt>
      <trkpt lat="50.757260983809829" lon="4.735529283061624">
        <ele>63.18</ele>
        <time>2023-04-16T10:41:29Z</time>
      </trkpt>
      <trkpt lat="50.757443541660905" lon="4.735025782138109">
        <ele>62.93</ele>
        <time>2023-04-16T10:41:52Z</time>
      </trkpt>
      <trkpt lat="50.757629871368408" lon="4.734475761651993">
        <ele>62.340000000000003</ele>
        <time>2023-04-16T10:42:19Z</time>
      </trkpt>
      <trkpt lat="50.757815698161721" lon="4.733907300978899">
        <ele>59.950000000000003</ele>
        <time>2023-04-16T10:42:46Z</time>
      </trkpt>
      <trkpt lat="50.757947713136673" lon="4.733393825590611">
        <ele>58.880000000000003</ele>
        <time>2023-04-16T10:43:09Z</time>
      </trkpt>
      <trkpt lat="50.758037734776735" lon="4.733069278299809">
        <ele>59.049999999999997</ele>
        <time>2023-04-16T10:43:25Z</time>
      </trkpt>
      <trkpt lat="50.758176287636161" lon="4.732585307210684">
        <ele>59.390000000000001</ele>
        <time>2023-04-16T10:43:49Z</time>
      </trkpt>
      <trkpt lat="50.758283492177725" lon="4.732259418815374">
        <ele>59.469999999999999</ele>
        <time>2023-04-16T10:44:07Z</time>
      </trkpt>
      <trkpt lat="50.758415590971708" lon="4.731853818520904">
        <ele>60.689999999999998</ele>
        <time>2023-04-16T10:44:28Z</time>
      </trkpt>
      <trkpt lat="50.758532853797078" lon="4.731435896828771">
        <ele>61.75</ele>
        <time>2023-04-16T10:44:48Z</time>
      </trkpt>
      <trkpt lat="50.758649110794067" lon="4.73098972812295">
        <ele>62.159999999999997</ele>
        <time>2023-04-16T10:45:08Z</time>
      </trkpt>
      <trkpt lat="50.758738378062844" lon="4.730695439502597">
        <ele>61.789999999999999</ele>
        <time>2023-04-16T10:45:24Z</time>
      </trkpt>
      <trkpt lat="50.75885396450758" lon="4.730355218052864">
        <ele>61.630000000000003</ele>
        <time>2023-04-16T10:45:43Z</time>
      </trkpt>
      <trkpt lat="50.758882462978363" lon="4.730281122028828">
        <ele>62.100000000000001</ele>
        <time>2023-04-16T10:45:50Z</time>
      </trkpt>
      <trkpt lat="50.759009532630444" lon="4.729908294975758">
        <ele>62.159999999999997</ele>
        <time>2023-04-16T10:46:08Z</time>
      </trkpt>
      <trkpt lat="50.759176332503557" lon="4.729441087692976">
        <ele>62.289999999999999</ele>
        <time>2023-04-16T10:46:30Z</time>
      </trkpt>
      <trkpt lat="50.759318908676505" lon="4.729031715542078">
        <ele>62.18</ele>
        <time>2023-04-16T10:46:50Z</time>
      </trkpt>
      <trkpt lat="50.75945645570755" lon="4.728632904589176">
        <ele>61.700000000000003</ele>
        <time>2023-04-16T10:47:10Z</time>
      </trkpt>
      <trkpt lat="50.759627614170313" lon="4.728169050067663">
        <ele>61.329999999999998</ele>
        <time>2023-04-16T10:47:33Z</time>
      </trkpt>
      <trkpt lat="50.75980925001204" lon="4.727839305996895">
        <ele>61.100000000000001</ele>
        <time>2023-04-16T10:47:52Z</time>
      </trkpt>
      <trkpt lat="50.760002033784986" lon="4.727456672117114">
        <ele>61.039999999999999</ele>
        <time>2023-04-16T10:48:14Z</time>
      </trkpt>
      <trkpt lat="50.760037153959274" lon="4.727378971874714">
        <ele>62.020000000000003</ele>
        <time>2023-04-16T10:48:28Z</time>
      </trkpt>
      <trkpt lat="50.760034471750259" lon="4.727320550009608">
        <ele>61.340000000000003</ele>
        <time>2023-04-16T10:48:39Z</time>
      </trkpt>
      <trkpt lat="50.760038997977972" lon="4.727301942184568">
        <ele>61.390000000000001</ele>
        <time>2023-04-16T10:48:40Z</time>
      </trkpt>
      <trkpt lat="50.760045452043414" lon="4.727281155064702">
        <ele>61.420000000000002</ele>
        <time>2023-04-16T10:48:41Z</time>
      </trkpt>
      <trkpt lat="50.760230021551251" lon="4.726988039910793">
        <ele>60.579999999999998</ele>
        <time>2023-04-16T10:48:58Z</time>
      </trkpt>
      <trkpt lat="50.76049480587244" lon="4.72648311406374">
        <ele>60.710000000000001</ele>
        <time>2023-04-16T10:49:15Z</time>
      </trkpt>
      <trkpt lat="50.760860340669751" lon="4.725741567090154">
        <ele>61.07</ele>
        <time>2023-04-16T10:49:33Z</time>
      </trkpt>
      <trkpt lat="50.761366439983249" lon="4.724776390939951">
        <ele>59.850000000000001</ele>
        <time>2023-04-16T10:49:55Z</time>
      </trkpt>
      <trkpt lat="50.761807831004262" lon="4.723688503727317">
        <ele>58.32</ele>
        <time>2023-04-16T10:50:16Z</time>
      </trkpt>
      <trkpt lat="50.762131288647652" lon="4.722771188244224">
        <ele>57.850000000000001</ele>
        <time>2023-04-16T10:50:34Z</time>
      </trkpt>
      <trkpt lat="50.762393223121762" lon="4.722251258790493">
        <ele>57.200000000000003</ele>
        <time>2023-04-16T10:50:48Z</time>
      </trkpt>
      <trkpt lat="50.762899992987514" lon="4.721630662679672">
        <ele>57.380000000000003</ele>
        <time>2023-04-16T10:51:06Z</time>
      </trkpt>
      <trkpt lat="50.763262175023556" lon="4.721184661611915">
        <ele>57.369999999999997</ele>
        <time>2023-04-16T10:51:21Z</time>
      </trkpt>
      <trkpt lat="50.76364447362721" lon="4.720555013045669">
        <ele>57.340000000000003</ele>
        <time>2023-04-16T10:51:38Z</time>
      </trkpt>
      <trkpt lat="50.764002883806825" lon="4.7198626678437">
        <ele>56.850000000000001</ele>
        <time>2023-04-16T10:51:56Z</time>
      </trkpt>
      <trkpt lat="50.764232045039535" lon="4.719422701746225">
        <ele>57.149999999999999</ele>
        <time>2023-04-16T10:52:12Z</time>
      </trkpt>
      <trkpt lat="50.764224668964744" lon="4.719404093921185">
        <ele>57.149999999999999</ele>
        <time>2023-04-16T10:52:13Z</time>
      </trkpt>
      <trkpt lat="50.764214359223843" lon="4.719389006495476">
        <ele>57.18</ele>
        <time>2023-04-16T10:52:14Z</time>
      </trkpt>
      <trkpt lat="50.764203881844878" lon="4.719377858564258">
        <ele>57.200000000000003</ele>
        <time>2023-04-16T10:52:15Z</time>
      </trkpt>
      <trkpt lat="50.764191560447216" lon="4.719368303194642">
        <ele>57.219999999999999</ele>
        <time>2023-04-16T10:52:16Z</time>
      </trkpt>
      <trkpt lat="50.764178400859237" lon="4.719360005110502">
        <ele>57.280000000000001</ele>
        <time>2023-04-16T10:52:17Z</time>
      </trkpt>
      <trkpt lat="50.764164235442877" lon="4.719353634864092">
        <ele>57.289999999999999</ele>
        <time>2023-04-16T10:52:18Z</time>
      </trkpt>
      <trkpt lat="50.764150070026517" lon="4.719348940998316">
        <ele>57.299999999999997</ele>
        <time>2023-04-16T10:52:19Z</time>
      </trkpt>
      <trkpt lat="50.764135234057903" lon="4.719343325123191">
        <ele>57.310000000000002</ele>
        <time>2023-04-16T10:52:20Z</time>
      </trkpt>
      <trkpt lat="50.763712702319026" lon="4.719151128083468">
        <ele>57.200000000000003</ele>
        <time>2023-04-16T10:52:49Z</time>
      </trkpt>
      <trkpt lat="50.76330735348165" lon="4.718869160860777">
        <ele>57.060000000000002</ele>
        <time>2023-04-16T10:53:19Z</time>
      </trkpt>
      <trkpt lat="50.762888761237264" lon="4.718577889725566">
        <ele>56.689999999999998</ele>
        <time>2023-04-16T10:53:50Z</time>
      </trkpt>
      <trkpt lat="50.762454913929105" lon="4.718376472592354">
        <ele>55.329999999999998</ele>
        <time>2023-04-16T10:54:19Z</time>
      </trkpt>
      <trkpt lat="50.762002542614937" lon="4.71824336796999">
        <ele>54.030000000000001</ele>
        <time>2023-04-16T10:54:49Z</time>
      </trkpt>
      <trkpt lat="50.761700207367539" lon="4.718063240870833">
        <ele>54.140000000000001</ele>
        <time>2023-04-16T10:55:10Z</time>
      </trkpt>
      <trkpt lat="50.761433579027653" lon="4.717801474034786">
        <ele>53.670000000000002</ele>
        <time>2023-04-16T10:55:32Z</time>
      </trkpt>
      <trkpt lat="50.761356046423316" lon="4.717706004157662">
        <ele>53.439999999999998</ele>
        <time>2023-04-16T10:55:45Z</time>
      </trkpt>
      <trkpt lat="50.761132584884763" lon="4.717374416068196">
        <ele>53.030000000000001</ele>
        <time>2023-04-16T10:56:07Z</time>
      </trkpt>
      <trkpt lat="50.760878194123507" lon="4.716943837702274">
        <ele>52</ele>
        <time>2023-04-16T10:56:33Z</time>
      </trkpt>
      <trkpt lat="50.760653559118509" lon="4.716638568788767">
        <ele>49.759999999999998</ele>
        <time>2023-04-16T10:56:54Z</time>
      </trkpt>
      <trkpt lat="50.760404197499156" lon="4.716417621821165">
        <ele>47.530000000000001</ele>
        <time>2023-04-16T10:57:14Z</time>
      </trkpt>
      <trkpt lat="50.760149890556931" lon="4.716282589361072">
        <ele>45.780000000000001</ele>
        <time>2023-04-16T10:57:34Z</time>
      </trkpt>
      <trkpt lat="50.759907653555274" lon="4.716141186654568">
        <ele>45.420000000000002</ele>
        <time>2023-04-16T10:57:52Z</time>
      </trkpt>
      <trkpt lat="50.759698441252112" lon="4.715851675719023">
        <ele>44.789999999999999</ele>
        <time>2023-04-16T10:58:11Z</time>
      </trkpt>
      <trkpt lat="50.759474560618401" lon="4.715702645480633">
        <ele>44.920000000000002</ele>
        <time>2023-04-16T10:58:27Z</time>
      </trkpt>
      <trkpt lat="50.759251350536942" lon="4.715680684894323">
        <ele>45.219999999999999</ele>
        <time>2023-04-16T10:58:45Z</time>
      </trkpt>
      <trkpt lat="50.759124699980021" lon="4.715737933292985">
        <ele>45.200000000000003</ele>
        <time>2023-04-16T10:58:53Z</time>
      </trkpt>
      <trkpt lat="50.758890844881535" lon="4.715968854725361">
        <ele>45.579999999999998</ele>
        <time>2023-04-16T10:59:12Z</time>
      </trkpt>
      <trkpt lat="50.758715244010091" lon="4.716293402016163">
        <ele>45.950000000000003</ele>
        <time>2023-04-16T10:59:32Z</time>
      </trkpt>
      <trkpt lat="50.758442329242826" lon="4.716609483584762">
        <ele>46.369999999999997</ele>
        <time>2023-04-16T10:59:55Z</time>
      </trkpt>
      <trkpt lat="50.758226076141" lon="4.716577464714646">
        <ele>46.539999999999999</ele>
        <time>2023-04-16T11:00:13Z</time>
      </trkpt>
      <trkpt lat="50.757931536063552" lon="4.716417957097292">
        <ele>47.219999999999999</ele>
        <time>2023-04-16T11:00:36Z</time>
      </trkpt>
      <trkpt lat="50.757681168615818" lon="4.716291893273592">
        <ele>47.82</ele>
        <time>2023-04-16T11:00:56Z</time>
      </trkpt>
      <trkpt lat="50.75758351944387" lon="4.716228442266583">
        <ele>48.82</ele>
        <time>2023-04-16T11:01:13Z</time>
      </trkpt>
      <trkpt lat="50.757542280480266" lon="4.716331539675593">
        <ele>49.399999999999999</ele>
        <time>2023-04-16T11:01:27Z</time>
      </trkpt>
      <trkpt lat="50.757539849728346" lon="4.716351237148047">
        <ele>49.509999999999998</ele>
        <time>2023-04-16T11:01:28Z</time>
      </trkpt>
      <trkpt lat="50.757479080930352" lon="4.716660613194108">
        <ele>51.57</ele>
        <time>2023-04-16T11:01:48Z</time>
      </trkpt>
      <trkpt lat="50.757352681830525" lon="4.71717962063849">
        <ele>53.420000000000002</ele>
        <time>2023-04-16T11:02:09Z</time>
      </trkpt>
      <trkpt lat="50.757264168933034" lon="4.717595865949988">
        <ele>54.229999999999997</ele>
        <time>2023-04-16T11:02:26Z</time>
      </trkpt>
      <trkpt lat="50.757162412628531" lon="4.717989563941956">
        <ele>54.969999999999999</ele>
        <time>2023-04-16T11:02:46Z</time>
      </trkpt>
      <trkpt lat="50.757060823962092" lon="4.718445371836424">
        <ele>56.090000000000003</ele>
        <time>2023-04-16T11:03:04Z</time>
      </trkpt>
      <trkpt lat="50.756991170346737" lon="4.718713592737913">
        <ele>57.030000000000001</ele>
        <time>2023-04-16T11:03:19Z</time>
      </trkpt>
      <trkpt lat="50.756877847015858" lon="4.71923871897161">
        <ele>58.240000000000002</ele>
        <time>2023-04-16T11:03:41Z</time>
      </trkpt>
      <trkpt lat="50.756755052134395" lon="4.719686061143875">
        <ele>59.729999999999997</ele>
        <time>2023-04-16T11:04:02Z</time>
      </trkpt>
      <trkpt lat="50.756571320816875" lon="4.720221413299441">
        <ele>60.600000000000001</ele>
        <time>2023-04-16T11:04:26Z</time>
      </trkpt>
      <trkpt lat="50.756349032744765" lon="4.720805883407593">
        <ele>62.32</ele>
        <time>2023-04-16T11:04:55Z</time>
      </trkpt>
      <trkpt lat="50.75619581155479" lon="4.721225565299392">
        <ele>63.280000000000001</ele>
        <time>2023-04-16T11:05:15Z</time>
      </trkpt>
      <trkpt lat="50.755989449098706" lon="4.721780195832253">
        <ele>63.909999999999997</ele>
        <time>2023-04-16T11:05:43Z</time>
      </trkpt>
      <trkpt lat="50.755847794935107" lon="4.722151346504688">
        <ele>63.549999999999997</ele>
        <time>2023-04-16T11:06:02Z</time>
      </trkpt>
      <trkpt lat="50.755677055567503" lon="4.722635988146067">
        <ele>63.920000000000002</ele>
        <time>2023-04-16T11:06:26Z</time>
      </trkpt>
      <trkpt lat="50.75550933368504" lon="4.72311451099813">
        <ele>63.759999999999998</ele>
        <time>2023-04-16T11:06:47Z</time>
      </trkpt>
      <trkpt lat="50.755253350362182" lon="4.723838791251183">
        <ele>63.979999999999997</ele>
        <time>2023-04-16T11:07:06Z</time>
      </trkpt>
      <trkpt lat="50.755039108917117" lon="4.724533231928945">
        <ele>64.409999999999997</ele>
        <time>2023-04-16T11:07:23Z</time>
      </trkpt>
      <trkpt lat="50.754941795021296" lon="4.72483548335731">
        <ele>64.400000000000006</ele>
        <time>2023-04-16T11:07:31Z</time>
      </trkpt>
      <trkpt lat="50.754918241873384" lon="4.724848391488195">
        <ele>64.450000000000003</ele>
        <time>2023-04-16T11:07:32Z</time>
      </trkpt>
      <trkpt lat="50.754891168326139" lon="4.724842943251133">
        <ele>64.510000000000005</ele>
        <time>2023-04-16T11:07:33Z</time>
      </trkpt>
      <trkpt lat="50.754862502217293" lon="4.724820647388697">
        <ele>64.530000000000001</ele>
        <time>2023-04-16T11:07:34Z</time>
      </trkpt>
      <trkpt lat="50.754834590479732" lon="4.724789718165994">
        <ele>64.579999999999998</ele>
        <time>2023-04-16T11:07:35Z</time>
      </trkpt>
      <trkpt lat="50.754308709874749" lon="4.724159901961684">
        <ele>65.599999999999994</ele>
        <time>2023-04-16T11:07:54Z</time>
      </trkpt>
      <trkpt lat="50.753665901720524" lon="4.723361106589437">
        <ele>65.030000000000001</ele>
        <time>2023-04-16T11:08:17Z</time>
      </trkpt>
      <trkpt lat="50.7532665040344" lon="4.722810750827193">
        <ele>63.340000000000003</ele>
        <time>2023-04-16T11:08:37Z</time>
      </trkpt>
      <trkpt lat="50.752959977835417" lon="4.722369443625212">
        <ele>61.960000000000001</ele>
        <time>2023-04-16T11:09:04Z</time>
      </trkpt>
      <trkpt lat="50.75272411108017" lon="4.721953701227903">
        <ele>61.030000000000001</ele>
        <time>2023-04-16T11:09:29Z</time>
      </trkpt>
      <trkpt lat="50.752735007554293" lon="4.721669303253293">
        <ele>60.409999999999997</ele>
        <time>2023-04-16T11:09:44Z</time>
      </trkpt>
      <trkpt lat="50.752977998927236" lon="4.721119282767177">
        <ele>58.990000000000002</ele>
        <time>2023-04-16T11:10:12Z</time>
      </trkpt>
      <trkpt lat="50.753074558451772" lon="4.721027920022607">
        <ele>58.759999999999998</ele>
        <time>2023-04-16T11:10:28Z</time>
      </trkpt>
      <trkpt lat="50.753093501552939" lon="4.721005456522107">
        <ele>58.729999999999997</ele>
        <time>2023-04-16T11:10:45Z</time>
      </trkpt>
      <trkpt lat="50.753118311986327" lon="4.720991458743811">
        <ele>58.869999999999997</ele>
        <time>2023-04-16T11:11:17Z</time>
      </trkpt>
      <trkpt lat="50.753124849870801" lon="4.720980646088719">
        <ele>59.130000000000003</ele>
        <time>2023-04-16T11:11:56Z</time>
      </trkpt>
      <trkpt lat="50.7531145401299" lon="4.720988105982542">
        <ele>59.049999999999997</ele>
        <time>2023-04-16T11:12:04Z</time>
      </trkpt>
      <trkpt lat="50.75309693813324" lon="4.721003444865346">
        <ele>59.100000000000001</ele>
        <time>2023-04-16T11:12:06Z</time>
      </trkpt>
      <trkpt lat="50.753028877079487" lon="4.721107967197895">
        <ele>58.780000000000001</ele>
        <time>2023-04-16T11:12:22Z</time>
      </trkpt>
      <trkpt lat="50.752998366951942" lon="4.721152307465673">
        <ele>58.700000000000003</ele>
        <time>2023-04-16T11:12:45Z</time>
      </trkpt>
      <trkpt lat="50.752995852380991" lon="4.72117125056684">
        <ele>58.68</ele>
        <time>2023-04-16T11:13:08Z</time>
      </trkpt>
      <trkpt lat="50.75299333781004" lon="4.721166808158159">
        <ele>58.810000000000002</ele>
        <time>2023-04-16T11:13:39Z</time>
      </trkpt>
      <trkpt lat="50.752981184050441" lon="4.721154486760497">
        <ele>58.719999999999999</ele>
        <time>2023-04-16T11:14:03Z</time>
      </trkpt>
      <trkpt lat="50.752984117716551" lon="4.721118193119764">
        <ele>58.75</ele>
        <time>2023-04-16T11:14:20Z</time>
      </trkpt>
      <trkpt lat="50.752994595095515" lon="4.721112577244639">
        <ele>58.689999999999998</ele>
        <time>2023-04-16T11:14:26Z</time>
      </trkpt>
      <trkpt lat="50.753004066646099" lon="4.721101596951485">
        <ele>58.689999999999998</ele>
        <time>2023-04-16T11:14:27Z</time>
      </trkpt>
      <trkpt lat="50.753014376387" lon="4.72108768299222">
        <ele>58.670000000000002</ele>
        <time>2023-04-16T11:14:28Z</time>
      </trkpt>
      <trkpt lat="50.753024099394679" lon="4.721072008833289">
        <ele>58.670000000000002</ele>
        <time>2023-04-16T11:14:29Z</time>
      </trkpt>
      <trkpt lat="50.753033738583326" lon="4.721055161207914">
        <ele>58.649999999999999</ele>
        <time>2023-04-16T11:14:30Z</time>
      </trkpt>
      <trkpt lat="50.753223337233067" lon="4.720636066049337">
        <ele>58.289999999999999</ele>
        <time>2023-04-16T11:14:51Z</time>
      </trkpt>
      <trkpt lat="50.753414360806346" lon="4.720148406922817">
        <ele>58.049999999999997</ele>
        <time>2023-04-16T11:15:14Z</time>
      </trkpt>
      <trkpt lat="50.753610413521528" lon="4.719593105837703">
        <ele>58.899999999999999</ele>
        <time>2023-04-16T11:15:40Z</time>
      </trkpt>
      <trkpt lat="50.753802107647061" lon="4.719057586044073">
        <ele>59.659999999999997</ele>
        <time>2023-04-16T11:16:05Z</time>
      </trkpt>
      <trkpt lat="50.75400578789413" lon="4.71851896494627">
        <ele>60.189999999999998</ele>
        <time>2023-04-16T11:16:31Z</time>
      </trkpt>
      <trkpt lat="50.754206031560898" lon="4.717984115704894">
        <ele>60.710000000000001</ele>
        <time>2023-04-16T11:16:56Z</time>
      </trkpt>
      <trkpt lat="50.754427649080753" lon="4.717500982806087">
        <ele>61.189999999999998</ele>
        <time>2023-04-16T11:17:21Z</time>
      </trkpt>
      <trkpt lat="50.754717662930489" lon="4.717190936207771">
        <ele>61.329999999999998</ele>
        <time>2023-04-16T11:17:44Z</time>
      </trkpt>
      <trkpt lat="50.755073642358184" lon="4.716810984537005">
        <ele>61.329999999999998</ele>
        <time>2023-04-16T11:18:12Z</time>
      </trkpt>
      <trkpt lat="50.755390897393227" lon="4.716445617377758">
        <ele>60.600000000000001</ele>
        <time>2023-04-16T11:18:39Z</time>
      </trkpt>
      <trkpt lat="50.755615783855319" lon="4.716225005686283">
        <ele>60.380000000000003</ele>
        <time>2023-04-16T11:18:58Z</time>
      </trkpt>
      <trkpt lat="50.755945611745119" lon="4.715870367363095">
        <ele>58.700000000000003</ele>
        <time>2023-04-16T11:19:26Z</time>
      </trkpt>
      <trkpt lat="50.756172258406878" lon="4.715487398207188">
        <ele>57.289999999999999</ele>
        <time>2023-04-16T11:19:49Z</time>
      </trkpt>
      <trkpt lat="50.756324389949441" lon="4.715208113193512">
        <ele>56.880000000000003</ele>
        <time>2023-04-16T11:20:06Z</time>
      </trkpt>
      <trkpt lat="50.756329586729407" lon="4.715068386867642">
        <ele>56.840000000000003</ele>
        <time>2023-04-16T11:20:12Z</time>
      </trkpt>
      <trkpt lat="50.756005961447954" lon="4.71469983458519">
        <ele>58.270000000000003</ele>
        <time>2023-04-16T11:20:38Z</time>
      </trkpt>
      <trkpt lat="50.755770597606897" lon="4.714518953114748">
        <ele>59.289999999999999</ele>
        <time>2023-04-16T11:20:55Z</time>
      </trkpt>
      <trkpt lat="50.75544043444097" lon="4.714273950085044">
        <ele>60.450000000000003</ele>
        <time>2023-04-16T11:21:19Z</time>
      </trkpt>
      <trkpt lat="50.755248991772532" lon="4.713844126090407">
        <ele>60.649999999999999</ele>
        <time>2023-04-16T11:21:40Z</time>
      </trkpt>
      <trkpt lat="50.755064254626632" lon="4.713317323476076">
        <ele>60.659999999999997</ele>
        <time>2023-04-16T11:22:04Z</time>
      </trkpt>
      <trkpt lat="50.754864094778895" lon="4.712933683767915">
        <ele>60.030000000000001</ele>
        <time>2023-04-16T11:22:25Z</time>
      </trkpt>
      <trkpt lat="50.754568548873067" lon="4.71275364048779">
        <ele>60.149999999999999</ele>
        <time>2023-04-16T11:22:46Z</time>
      </trkpt>
      <trkpt lat="50.754284067079425" lon="4.712641574442387">
        <ele>60.159999999999997</ele>
        <time>2023-04-16T11:23:05Z</time>
      </trkpt>
      <trkpt lat="50.754266884177923" lon="4.712660266086459">
        <ele>60.189999999999998</ele>
        <time>2023-04-16T11:23:06Z</time>
      </trkpt>
      <trkpt lat="50.754223130643368" lon="4.712683651596308">
        <ele>60.200000000000003</ele>
        <time>2023-04-16T11:23:09Z</time>
      </trkpt>
      <trkpt lat="50.754211060702801" lon="4.712678622454405">
        <ele>60.200000000000003</ele>
        <time>2023-04-16T11:23:10Z</time>
      </trkpt>
      <trkpt lat="50.754196308553219" lon="4.712680131196976">
        <ele>60.18</ele>
        <time>2023-04-16T11:23:11Z</time>
      </trkpt>
      <trkpt lat="50.753886932507157" lon="4.712562616914511">
        <ele>60.25</ele>
        <time>2023-04-16T11:23:32Z</time>
      </trkpt>
      <trkpt lat="50.753522654995322" lon="4.712249049916863">
        <ele>60.479999999999997</ele>
        <time>2023-04-16T11:23:58Z</time>
      </trkpt>
      <trkpt lat="50.753296930342913" lon="4.71201092004776">
        <ele>60.280000000000001</ele>
        <time>2023-04-16T11:24:18Z</time>
      </trkpt>
      <trkpt lat="50.753040947020054" lon="4.711814699694514">
        <ele>59.68</ele>
        <time>2023-04-16T11:24:36Z</time>
      </trkpt>
      <trkpt lat="50.752800470218062" lon="4.711701544001699">
        <ele>59.460000000000001</ele>
        <time>2023-04-16T11:24:54Z</time>
      </trkpt>
      <trkpt lat="50.752513306215405" lon="4.71165326423943">
        <ele>59.130000000000003</ele>
        <time>2023-04-16T11:25:16Z</time>
      </trkpt>
      <trkpt lat="50.752487657591701" lon="4.711652593687177">
        <ele>58.859999999999999</ele>
        <time>2023-04-16T11:25:20Z</time>
      </trkpt>
      <trkpt lat="50.752129834145308" lon="4.711556285619736">
        <ele>58.18</ele>
        <time>2023-04-16T11:25:45Z</time>
      </trkpt>
      <trkpt lat="50.75184803456068" lon="4.711575480177999">
        <ele>57.939999999999998</ele>
        <time>2023-04-16T11:26:05Z</time>
      </trkpt>
      <trkpt lat="50.751625159755349" lon="4.711687294766307">
        <ele>57.759999999999998</ele>
        <time>2023-04-16T11:26:21Z</time>
      </trkpt>
      <trkpt lat="50.751360459253192" lon="4.711811011657119">
        <ele>57.100000000000001</ele>
        <time>2023-04-16T11:26:40Z</time>
      </trkpt>
      <trkpt lat="50.751080168411136" lon="4.711956856772304">
        <ele>55.619999999999997</ele>
        <time>2023-04-16T11:27:00Z</time>
      </trkpt>
      <trkpt lat="50.750814126804471" lon="4.712051739916205">
        <ele>54.350000000000001</ele>
        <time>2023-04-16T11:27:18Z</time>
      </trkpt>
      <trkpt lat="50.750579768791795" lon="4.712241757661104">
        <ele>52.780000000000001</ele>
        <time>2023-04-16T11:27:37Z</time>
      </trkpt>
      <trkpt lat="50.750323785468936" lon="4.712504027411342">
        <ele>51.200000000000003</ele>
        <time>2023-04-16T11:27:54Z</time>
      </trkpt>
      <trkpt lat="50.75024189427495" lon="4.7126046102494">
        <ele>49.869999999999997</ele>
        <time>2023-04-16T11:28:02Z</time>
      </trkpt>
      <trkpt lat="50.750056067481637" lon="4.712773757055402">
        <ele>47.780000000000001</ele>
        <time>2023-04-16T11:28:18Z</time>
      </trkpt>
      <trkpt lat="50.749843083322048" lon="4.71297207288444">
        <ele>45.990000000000002</ele>
        <time>2023-04-16T11:28:34Z</time>
      </trkpt>
      <trkpt lat="50.749621717259288" lon="4.71321003511548">
        <ele>44.649999999999999</ele>
        <time>2023-04-16T11:28:53Z</time>
      </trkpt>
      <trkpt lat="50.749415019527078" lon="4.71347582526505">
        <ele>43.07</ele>
        <time>2023-04-16T11:29:11Z</time>
      </trkpt>
      <trkpt lat="50.749220056459308" lon="4.71379391849041">
        <ele>40.219999999999999</ele>
        <time>2023-04-16T11:29:30Z</time>
      </trkpt>
      <trkpt lat="50.749079240486026" lon="4.714123411104083">
        <ele>37.100000000000001</ele>
        <time>2023-04-16T11:29:50Z</time>
      </trkpt>
      <trkpt lat="50.748970778658986" lon="4.714492550119758">
        <ele>35.270000000000003</ele>
        <time>2023-04-16T11:30:05Z</time>
      </trkpt>
      <trkpt lat="50.748912859708071" lon="4.714925643056631">
        <ele>32.960000000000001</ele>
        <time>2023-04-16T11:30:22Z</time>
      </trkpt>
      <trkpt lat="50.748899448662996" lon="4.715423276647925">
        <ele>30.460000000000001</ele>
        <time>2023-04-16T11:30:42Z</time>
      </trkpt>
      <trkpt lat="50.748776067048311" lon="4.715743130072951">
        <ele>28.699999999999999</ele>
        <time>2023-04-16T11:30:59Z</time>
      </trkpt>
      <trkpt lat="50.748732816427946" lon="4.715852262452245">
        <ele>28.25</ele>
        <time>2023-04-16T11:31:08Z</time>
      </trkpt>
      <trkpt lat="50.74873642064631" lon="4.715876486152411">
        <ele>28.219999999999999</ele>
        <time>2023-04-16T11:31:09Z</time>
      </trkpt>
      <trkpt lat="50.748835830017924" lon="4.716426087543368">
        <ele>28.859999999999999</ele>
        <time>2023-04-16T11:31:28Z</time>
      </trkpt>
      <trkpt lat="50.748961055651307" lon="4.717022208496928">
        <ele>30.039999999999999</ele>
        <time>2023-04-16T11:31:52Z</time>
      </trkpt>
      <trkpt lat="50.748990476131439" lon="4.717620508745313">
        <ele>30.77</ele>
        <time>2023-04-16T11:32:16Z</time>
      </trkpt>
      <trkpt lat="50.748853348195553" lon="4.71785687841475">
        <ele>31.16</ele>
        <time>2023-04-16T11:32:30Z</time>
      </trkpt>
      <trkpt lat="50.748639358207583" lon="4.718094924464822">
        <ele>30.57</ele>
        <time>2023-04-16T11:32:46Z</time>
      </trkpt>
      <trkpt lat="50.7483811955899" lon="4.718756508082151">
        <ele>30.75</ele>
        <time>2023-04-16T11:33:01Z</time>
      </trkpt>
      <trkpt lat="50.748164188116789" lon="4.719823524355888">
        <ele>31.5</ele>
        <time>2023-04-16T11:33:19Z</time>
      </trkpt>
      <trkpt lat="50.74808900244534" lon="4.72015636973083">
        <ele>32.359999999999999</ele>
        <time>2023-04-16T11:33:24Z</time>
      </trkpt>
      <trkpt lat="50.747887585312128" lon="4.721032027155161">
        <ele>34.649999999999999</ele>
        <time>2023-04-16T11:33:39Z</time>
      </trkpt>
      <trkpt lat="50.74769807048142" lon="4.721185751259327">
        <ele>36.630000000000003</ele>
        <time>2023-04-16T11:33:52Z</time>
      </trkpt>
      <trkpt lat="50.74739757925272" lon="4.721217853948474">
        <ele>38.18</ele>
        <time>2023-04-16T11:34:04Z</time>
      </trkpt>
      <trkpt lat="50.747193731367588" lon="4.721430670469999">
        <ele>41.380000000000003</ele>
        <time>2023-04-16T11:34:14Z</time>
      </trkpt>
      <trkpt lat="50.747097004204988" lon="4.721785727888346">
        <ele>44.049999999999997</ele>
        <time>2023-04-16T11:34:23Z</time>
      </trkpt>
      <trkpt lat="50.746984435245395" lon="4.722081022337079">
        <ele>47.07</ele>
        <time>2023-04-16T11:34:30Z</time>
      </trkpt>
      <trkpt lat="50.746899778023362" lon="4.722541021183133">
        <ele>50.450000000000003</ele>
        <time>2023-04-16T11:34:38Z</time>
      </trkpt>
      <trkpt lat="50.746862813830376" lon="4.722691811621189">
        <ele>51.240000000000002</ele>
        <time>2023-04-16T11:34:40Z</time>
      </trkpt>
      <trkpt lat="50.746837500482798" lon="4.72276708111167">
        <ele>51.5</ele>
        <time>2023-04-16T11:34:41Z</time>
      </trkpt>
      <trkpt lat="50.746818808838725" lon="4.722839249297977">
        <ele>51.719999999999999</ele>
        <time>2023-04-16T11:34:42Z</time>
      </trkpt>
      <trkpt lat="50.746709257364273" lon="4.723265720531344">
        <ele>54.960000000000001</ele>
        <time>2023-04-16T11:34:49Z</time>
      </trkpt>
      <trkpt lat="50.746624851599336" lon="4.723541233688593">
        <ele>58.119999999999997</ele>
        <time>2023-04-16T11:34:54Z</time>
      </trkpt>
      <trkpt lat="50.746419578790665" lon="4.724157303571701">
        <ele>61.159999999999997</ele>
        <time>2023-04-16T11:35:05Z</time>
      </trkpt>
      <trkpt lat="50.746340956538916" lon="4.724454274401069">
        <ele>63.119999999999997</ele>
        <time>2023-04-16T11:35:18Z</time>
      </trkpt>
      <trkpt lat="50.746326288208365" lon="4.724521329626441">
        <ele>63.210000000000001</ele>
        <time>2023-04-16T11:35:39Z</time>
      </trkpt>
      <trkpt lat="50.746320672333241" lon="4.724532058462501">
        <ele>62.770000000000003</ele>
        <time>2023-04-16T11:36:15Z</time>
      </trkpt>
      <trkpt lat="50.746318493038416" lon="4.724537841975689">
        <ele>62.619999999999997</ele>
        <time>2023-04-16T11:36:57Z</time>
      </trkpt>
      <trkpt lat="50.746209193021059" lon="4.724840680137277">
        <ele>62.850000000000001</ele>
        <time>2023-04-16T11:37:28Z</time>
      </trkpt>
      <trkpt lat="50.746089499443769" lon="4.72518383525312">
        <ele>63.68</ele>
        <time>2023-04-16T11:37:45Z</time>
      </trkpt>
      <trkpt lat="50.746072065085173" lon="4.725195821374655">
        <ele>63.75</ele>
        <time>2023-04-16T11:37:46Z</time>
      </trkpt>
      <trkpt lat="50.745814070105553" lon="4.725106805562973">
        <ele>64</ele>
        <time>2023-04-16T11:38:03Z</time>
      </trkpt>
      <trkpt lat="50.74545138515532" lon="4.724841099232435">
        <ele>63.539999999999999</ele>
        <time>2023-04-16T11:38:18Z</time>
      </trkpt>
      <trkpt lat="50.745101105421782" lon="4.724411107599735">
        <ele>63.340000000000003</ele>
        <time>2023-04-16T11:38:32Z</time>
      </trkpt>
      <trkpt lat="50.744827603921294" lon="4.723990922793746">
        <ele>62.920000000000002</ele>
        <time>2023-04-16T11:38:44Z</time>
      </trkpt>
      <trkpt lat="50.744614703580737" lon="4.723552633076906">
        <ele>62.670000000000002</ele>
        <time>2023-04-16T11:38:56Z</time>
      </trkpt>
      <trkpt lat="50.744429966434836" lon="4.723000433295965">
        <ele>62.369999999999997</ele>
        <time>2023-04-16T11:39:10Z</time>
      </trkpt>
      <trkpt lat="50.744199631735682" lon="4.722544709220529">
        <ele>60.93</ele>
        <time>2023-04-16T11:39:23Z</time>
      </trkpt>
      <trkpt lat="50.743890507146716" lon="4.72203073091805">
        <ele>59.579999999999998</ele>
        <time>2023-04-16T11:39:37Z</time>
      </trkpt>
      <trkpt lat="50.743764359503984" lon="4.721340397372842">
        <ele>59.200000000000003</ele>
        <time>2023-04-16T11:39:49Z</time>
      </trkpt>
      <trkpt lat="50.743671739473939" lon="4.720478234812617">
        <ele>58.829999999999998</ele>
        <time>2023-04-16T11:40:02Z</time>
      </trkpt>
      <trkpt lat="50.743478955700994" lon="4.720051931217313">
        <ele>59.140000000000001</ele>
        <time>2023-04-16T11:40:11Z</time>
      </trkpt>
      <trkpt lat="50.743036642670631" lon="4.719763090834022">
        <ele>60.219999999999999</ele>
        <time>2023-04-16T11:40:23Z</time>
      </trkpt>
      <trkpt lat="50.742660127580166" lon="4.719465784728527">
        <ele>61.539999999999999</ele>
        <time>2023-04-16T11:40:33Z</time>
      </trkpt>
      <trkpt lat="50.742402970790863" lon="4.719155235216022">
        <ele>62.520000000000003</ele>
        <time>2023-04-16T11:40:39Z</time>
      </trkpt>
      <trkpt lat="50.742361815646291" lon="4.719099998474121">
        <ele>62.590000000000003</ele>
        <time>2023-04-16T11:40:40Z</time>
      </trkpt>
      <trkpt lat="50.742326695472002" lon="4.719040654599667">
        <ele>62.619999999999997</ele>
        <time>2023-04-16T11:40:41Z</time>
      </trkpt>
      <trkpt lat="50.742294425144792" lon="4.718975024297833">
        <ele>62.630000000000003</ele>
        <time>2023-04-16T11:40:42Z</time>
      </trkpt>
      <trkpt lat="50.742266681045294" lon="4.718905119225383">
        <ele>62.609999999999999</ele>
        <time>2023-04-16T11:40:43Z</time>
      </trkpt>
      <trkpt lat="50.741837611421943" lon="4.718402037397027">
        <ele>62.460000000000001</ele>
        <time>2023-04-16T11:40:55Z</time>
      </trkpt>
      <trkpt lat="50.741398986428976" lon="4.718243703246117">
        <ele>62.270000000000003</ele>
        <time>2023-04-16T11:41:07Z</time>
      </trkpt>
      <trkpt lat="50.741186086088419" lon="4.718268178403378">
        <ele>61.100000000000001</ele>
        <time>2023-04-16T11:41:19Z</time>
      </trkpt>
      <trkpt lat="50.740908896550536" lon="4.718243703246117">
        <ele>60.340000000000003</ele>
        <time>2023-04-16T11:41:35Z</time>
      </trkpt>
      <trkpt lat="50.740588288754225" lon="4.718222413212061">
        <ele>59.310000000000002</ele>
        <time>2023-04-16T11:41:53Z</time>
      </trkpt>
      <trkpt lat="50.740358540788293" lon="4.71823163330555">
        <ele>58.399999999999999</ele>
        <time>2023-04-16T11:42:06Z</time>
      </trkpt>
      <trkpt lat="50.740087470039725" lon="4.718182682991028">
        <ele>56.439999999999998</ele>
        <time>2023-04-16T11:42:23Z</time>
      </trkpt>
      <trkpt lat="50.739883622154593" lon="4.718126943334937">
        <ele>54.619999999999997</ele>
        <time>2023-04-16T11:42:36Z</time>
      </trkpt>
      <trkpt lat="50.739682707935572" lon="4.718044968321919">
        <ele>52.109999999999999</ele>
        <time>2023-04-16T11:42:51Z</time>
      </trkpt>
      <trkpt lat="50.739404680207372" lon="4.717891830950975">
        <ele>49.07</ele>
        <time>2023-04-16T11:43:09Z</time>
      </trkpt>
      <trkpt lat="50.739164873957634" lon="4.717730898410082">
        <ele>46.969999999999999</ele>
        <time>2023-04-16T11:43:26Z</time>
      </trkpt>
      <trkpt lat="50.73891643434763" lon="4.717533253133297">
        <ele>44.450000000000003</ele>
        <time>2023-04-16T11:43:42Z</time>
      </trkpt>
      <trkpt lat="50.738696912303567" lon="4.717215495184064">
        <ele>42.439999999999998</ele>
        <time>2023-04-16T11:43:57Z</time>
      </trkpt>
      <trkpt lat="50.738589288666844" lon="4.716827748343349">
        <ele>39.689999999999998</ele>
        <time>2023-04-16T11:44:13Z</time>
      </trkpt>
      <trkpt lat="50.738473953679204" lon="4.716653488576412">
        <ele>36.880000000000003</ele>
        <time>2023-04-16T11:44:27Z</time>
      </trkpt>
      <trkpt lat="50.738330539315939" lon="4.716545613482595">
        <ele>34.670000000000002</ele>
        <time>2023-04-16T11:44:40Z</time>
      </trkpt>
      <trkpt lat="50.73831838555634" lon="4.716536561027169">
        <ele>34.409999999999997</ele>
        <time>2023-04-16T11:44:41Z</time>
      </trkpt>
      <trkpt lat="50.738140353932977" lon="4.7164261713624">
        <ele>32.299999999999997</ele>
        <time>2023-04-16T11:44:57Z</time>
      </trkpt>
      <trkpt lat="50.738004734739661" lon="4.716353751718998">
        <ele>29.73</ele>
        <time>2023-04-16T11:45:21Z</time>
      </trkpt>
      <trkpt lat="50.737905576825142" lon="4.716329192742705">
        <ele>28.710000000000001</ele>
        <time>2023-04-16T11:45:43Z</time>
      </trkpt>
      <trkpt lat="50.737652778625488" lon="4.716267418116331">
        <ele>26.989999999999998</ele>
        <time>2023-04-16T11:45:59Z</time>
      </trkpt>
      <trkpt lat="50.737384725362062" lon="4.716186029836536">
        <ele>25.379999999999999</ele>
        <time>2023-04-16T11:46:16Z</time>
      </trkpt>
      <trkpt lat="50.737340971827507" lon="4.716177564114332">
        <ele>25.16</ele>
        <time>2023-04-16T11:46:19Z</time>
      </trkpt>
      <trkpt lat="50.737327476963401" lon="4.716183179989457">
        <ele>25.120000000000001</ele>
        <time>2023-04-16T11:46:20Z</time>
      </trkpt>
      <trkpt lat="50.737150786444545" lon="4.716198435053229">
        <ele>24.129999999999999</ele>
        <time>2023-04-16T11:46:33Z</time>
      </trkpt>
      <trkpt lat="50.737022794783115" lon="4.716114951297641">
        <ele>24.289999999999999</ele>
        <time>2023-04-16T11:46:46Z</time>
      </trkpt>
      <trkpt lat="50.736879715695977" lon="4.715703064575791">
        <ele>24.670000000000002</ele>
        <time>2023-04-16T11:47:05Z</time>
      </trkpt>
      <trkpt lat="50.736753568053246" lon="4.715364770963788">
        <ele>24.969999999999999</ele>
        <time>2023-04-16T11:47:20Z</time>
      </trkpt>
      <trkpt lat="50.736688524484634" lon="4.715305594727397">
        <ele>25.140000000000001</ele>
        <time>2023-04-16T11:47:26Z</time>
      </trkpt>
      <trkpt lat="50.736681399866939" lon="4.715316826477647">
        <ele>25.129999999999999</ele>
        <time>2023-04-16T11:47:27Z</time>
      </trkpt>
      <trkpt lat="50.736679555848241" lon="4.715333338826895">
        <ele>25.100000000000001</ele>
        <time>2023-04-16T11:47:28Z</time>
      </trkpt>
      <trkpt lat="50.736680813133717" lon="4.715355969965458">
        <ele>25.100000000000001</ele>
        <time>2023-04-16T11:47:29Z</time>
      </trkpt>
      <trkpt lat="50.736680813133717" lon="4.715389162302017">
        <ele>25.09</ele>
        <time>2023-04-16T11:47:30Z</time>
      </trkpt>
      <trkpt lat="50.736750299111009" lon="4.715766850858927">
        <ele>22.879999999999999</ele>
        <time>2023-04-16T11:47:50Z</time>
      </trkpt>
      <trkpt lat="50.736736049875617" lon="4.716118555516005">
        <ele>20.719999999999999</ele>
        <time>2023-04-16T11:48:06Z</time>
      </trkpt>
      <trkpt lat="50.736562041565776" lon="4.716359283775091">
        <ele>18.149999999999999</ele>
        <time>2023-04-16T11:48:25Z</time>
      </trkpt>
      <trkpt lat="50.736382333561778" lon="4.716686680912972">
        <ele>16.640000000000001</ele>
        <time>2023-04-16T11:48:41Z</time>
      </trkpt>
      <trkpt lat="50.736103132367134" lon="4.716959428042173">
        <ele>14.949999999999999</ele>
        <time>2023-04-16T11:49:00Z</time>
      </trkpt>
      <trkpt lat="50.735880341380835" lon="4.717219853773713">
        <ele>14.43</ele>
        <time>2023-04-16T11:49:17Z</time>
      </trkpt>
      <trkpt lat="50.735703986138105" lon="4.717465108260512">
        <ele>14.18</ele>
        <time>2023-04-16T11:49:32Z</time>
      </trkpt>
      <trkpt lat="50.735399387776852" lon="4.717935165390372">
        <ele>15.16</ele>
        <time>2023-04-16T11:49:56Z</time>
      </trkpt>
      <trkpt lat="50.735147595405579" lon="4.718294497579336">
        <ele>16.260000000000002</ele>
        <time>2023-04-16T11:50:16Z</time>
      </trkpt>
      <trkpt lat="50.734978029504418" lon="4.718522485345602">
        <ele>17.399999999999999</ele>
        <time>2023-04-16T11:50:31Z</time>
      </trkpt>
      <trkpt lat="50.734929163008928" lon="4.718572441488504">
        <ele>17.809999999999999</ele>
        <time>2023-04-16T11:50:35Z</time>
      </trkpt>
      <trkpt lat="50.73491994291544" lon="4.718584259971976">
        <ele>17.850000000000001</ele>
        <time>2023-04-16T11:50:36Z</time>
      </trkpt>
      <trkpt lat="50.734666557982564" lon="4.71876229159534">
        <ele>20.300000000000001</ele>
        <time>2023-04-16T11:50:55Z</time>
      </trkpt>
      <trkpt lat="50.734421387314796" lon="4.718912662938237">
        <ele>22.510000000000002</ele>
        <time>2023-04-16T11:51:11Z</time>
      </trkpt>
      <trkpt lat="50.73418409563601" lon="4.718988267704845">
        <ele>24.149999999999999</ele>
        <time>2023-04-16T11:51:29Z</time>
      </trkpt>
      <trkpt lat="50.734123326838017" lon="4.718995727598667">
        <ele>25.079999999999998</ele>
        <time>2023-04-16T11:51:34Z</time>
      </trkpt>
      <trkpt lat="50.733909253031015" lon="4.719239389523864">
        <ele>27.23</ele>
        <time>2023-04-16T11:51:50Z</time>
      </trkpt>
      <trkpt lat="50.733612030744553" lon="4.719374673441052">
        <ele>28.809999999999999</ele>
        <time>2023-04-16T11:52:10Z</time>
      </trkpt>
      <trkpt lat="50.733388820663095" lon="4.719335781410337">
        <ele>29.800000000000001</ele>
        <time>2023-04-16T11:52:24Z</time>
      </trkpt>
      <trkpt lat="50.733145074918866" lon="4.719259003177285">
        <ele>31.460000000000001</ele>
        <time>2023-04-16T11:52:41Z</time>
      </trkpt>
      <trkpt lat="50.732902586460114" lon="4.719203263521195">
        <ele>33.299999999999997</ele>
        <time>2023-04-16T11:52:57Z</time>
      </trkpt>
      <trkpt lat="50.73265029117465" lon="4.719196893274784">
        <ele>34.859999999999999</ele>
        <time>2023-04-16T11:53:12Z</time>
      </trkpt>
      <trkpt lat="50.732430769130588" lon="4.719155821949244">
        <ele>36.659999999999997</ele>
        <time>2023-04-16T11:53:26Z</time>
      </trkpt>
      <trkpt lat="50.732368491590023" lon="4.719166969880462">
        <ele>37.159999999999997</ele>
        <time>2023-04-16T11:53:30Z</time>
      </trkpt>
      <trkpt lat="50.732133463025093" lon="4.719182560220361">
        <ele>38.579999999999998</ele>
        <time>2023-04-16T11:53:44Z</time>
      </trkpt>
      <trkpt lat="50.731889884918928" lon="4.719297979027033">
        <ele>40.530000000000001</ele>
        <time>2023-04-16T11:54:01Z</time>
      </trkpt>
      <trkpt lat="50.731791397556663" lon="4.719341564923525">
        <ele>41.600000000000001</ele>
        <time>2023-04-16T11:54:07Z</time>
      </trkpt>
      <trkpt lat="50.731538012623787" lon="4.719453463330865">
        <ele>43.149999999999999</ele>
        <time>2023-04-16T11:54:24Z</time>
      </trkpt>
      <trkpt lat="50.731305666267872" lon="4.719542730599642">
        <ele>43.939999999999998</ele>
        <time>2023-04-16T11:54:40Z</time>
      </trkpt>
      <trkpt lat="50.731178764253855" lon="4.71959687769413">
        <ele>44.409999999999997</ele>
        <time>2023-04-16T11:54:48Z</time>
      </trkpt>
      <trkpt lat="50.730952620506287" lon="4.719840623438358">
        <ele>46.130000000000003</ele>
        <time>2023-04-16T11:55:07Z</time>
      </trkpt>
      <trkpt lat="50.730828903615475" lon="4.719974398612976">
        <ele>46.899999999999999</ele>
        <time>2023-04-16T11:55:17Z</time>
      </trkpt>
      <trkpt lat="50.73081448674202" lon="4.719993844628334">
        <ele>47.009999999999998</ele>
        <time>2023-04-16T11:55:18Z</time>
      </trkpt>
      <trkpt lat="50.730434199795127" lon="4.720387374982238">
        <ele>49.850000000000001</ele>
        <time>2023-04-16T11:55:34Z</time>
      </trkpt>
      <trkpt lat="50.730027426034212" lon="4.720834884792566">
        <ele>52.670000000000002</ele>
        <time>2023-04-16T11:55:47Z</time>
      </trkpt>
      <trkpt lat="50.729934386909008" lon="4.720935383811593">
        <ele>53.25</ele>
        <time>2023-04-16T11:55:49Z</time>
      </trkpt>
      <trkpt lat="50.729616461321712" lon="4.721292704343796">
        <ele>56.289999999999999</ele>
        <time>2023-04-16T11:55:57Z</time>
      </trkpt>
      <trkpt lat="50.729215135797858" lon="4.721814226359129">
        <ele>59.560000000000002</ele>
        <time>2023-04-16T11:56:07Z</time>
      </trkpt>
      <trkpt lat="50.729107931256294" lon="4.721937524154782">
        <ele>60.329999999999998</ele>
        <time>2023-04-16T11:56:09Z</time>
      </trkpt>
      <trkpt lat="50.729054706171155" lon="4.721994940191507">
        <ele>60.68</ele>
        <time>2023-04-16T11:56:10Z</time>
      </trkpt>
      <trkpt lat="50.728622954338789" lon="4.722580248489976">
        <ele>64.040000000000006</ele>
        <time>2023-04-16T11:56:20Z</time>
      </trkpt>
      <trkpt lat="50.728286420926452" lon="4.722999762743712">
        <ele>67.260000000000005</ele>
        <time>2023-04-16T11:56:28Z</time>
      </trkpt>
      <trkpt lat="50.727898254990578" lon="4.72339790314436">
        <ele>70.340000000000003</ele>
        <time>2023-04-16T11:56:39Z</time>
      </trkpt>
      <trkpt lat="50.72766087949276" lon="4.723526146262884">
        <ele>71.489999999999995</ele>
        <time>2023-04-16T11:56:56Z</time>
      </trkpt>
      <trkpt lat="50.727307666093111" lon="4.723616922274232">
        <ele>71.879999999999995</ele>
        <time>2023-04-16T11:57:20Z</time>
      </trkpt>
      <trkpt lat="50.726977586746216" lon="4.723681714385748">
        <ele>72.769999999999996</ele>
        <time>2023-04-16T11:57:43Z</time>
      </trkpt>
      <trkpt lat="50.72655270807445" lon="4.723745081573725">
        <ele>73.489999999999995</ele>
        <time>2023-04-16T11:58:10Z</time>
      </trkpt>
      <trkpt lat="50.726243583485484" lon="4.723922526463866">
        <ele>74.049999999999997</ele>
        <time>2023-04-16T11:58:27Z</time>
      </trkpt>
      <trkpt lat="50.725922891870141" lon="4.724175408482552">
        <ele>74.109999999999999</ele>
        <time>2023-04-16T11:58:49Z</time>
      </trkpt>
      <trkpt lat="50.725659532472491" lon="4.724503308534622">
        <ele>74.219999999999999</ele>
        <time>2023-04-16T11:59:09Z</time>
      </trkpt>
      <trkpt lat="50.725362058728933" lon="4.724813271313906">
        <ele>74.409999999999997</ele>
        <time>2023-04-16T11:59:25Z</time>
      </trkpt>
      <trkpt lat="50.724863838404417" lon="4.725129352882505">
        <ele>75.709999999999994</ele>
        <time>2023-04-16T11:59:42Z</time>
      </trkpt>
      <trkpt lat="50.724280877038836" lon="4.725494468584657">
        <ele>76.75</ele>
        <time>2023-04-16T12:00:02Z</time>
      </trkpt>
      <trkpt lat="50.723699256777763" lon="4.725864110514522">
        <ele>78.170000000000002</ele>
        <time>2023-04-16T12:00:21Z</time>
      </trkpt>
      <trkpt lat="50.723144877701998" lon="4.726241379976273">
        <ele>79.840000000000003</ele>
        <time>2023-04-16T12:00:39Z</time>
      </trkpt>
      <trkpt lat="50.722828879952431" lon="4.726505158469081">
        <ele>81.739999999999995</ele>
        <time>2023-04-16T12:00:53Z</time>
      </trkpt>
      <trkpt lat="50.72254590690136" lon="4.726753262802959">
        <ele>83.450000000000003</ele>
        <time>2023-04-16T12:01:13Z</time>
      </trkpt>
      <trkpt lat="50.722163524478674" lon="4.727035984396935">
        <ele>84.810000000000002</ele>
        <time>2023-04-16T12:01:41Z</time>
      </trkpt>
      <trkpt lat="50.722152544185519" lon="4.727037996053696">
        <ele>84.840000000000003</ele>
        <time>2023-04-16T12:01:42Z</time>
      </trkpt>
      <trkpt lat="50.722141060978174" lon="4.727037996053696">
        <ele>84.859999999999999</ele>
        <time>2023-04-16T12:01:43Z</time>
      </trkpt>
      <trkpt lat="50.722107281908393" lon="4.72705626860261">
        <ele>84.829999999999998</ele>
        <time>2023-04-16T12:01:47Z</time>
      </trkpt>
      <trkpt lat="50.72209688834846" lon="4.727064315229654">
        <ele>84.840000000000003</ele>
        <time>2023-04-16T12:01:48Z</time>
      </trkpt>
      <trkpt lat="50.721833612769842" lon="4.727232959121466">
        <ele>85.290000000000006</ele>
        <time>2023-04-16T12:02:10Z</time>
      </trkpt>
      <trkpt lat="50.721810981631279" lon="4.727237401530147">
        <ele>85.239999999999995</ele>
        <time>2023-04-16T12:02:17Z</time>
      </trkpt>
      <trkpt lat="50.721800336614251" lon="4.727230444550514">
        <ele>85.239999999999995</ele>
        <time>2023-04-16T12:02:18Z</time>
      </trkpt>
      <trkpt lat="50.721793211996555" lon="4.727213764563203">
        <ele>85.260000000000005</ele>
        <time>2023-04-16T12:02:19Z</time>
      </trkpt>
      <trkpt lat="50.721788601949811" lon="4.727191468700767">
        <ele>85.260000000000005</ele>
        <time>2023-04-16T12:02:20Z</time>
      </trkpt>
      <trkpt lat="50.721785752102733" lon="4.727165820077062">
        <ele>85.260000000000005</ele>
        <time>2023-04-16T12:02:21Z</time>
      </trkpt>
      <trkpt lat="50.721785835921764" lon="4.727140003815293">
        <ele>85.299999999999997</ele>
        <time>2023-04-16T12:02:22Z</time>
      </trkpt>
      <trkpt lat="50.721787428483367" lon="4.727114858105779">
        <ele>85.310000000000002</ele>
        <time>2023-04-16T12:02:23Z</time>
      </trkpt>
      <trkpt lat="50.721789104864001" lon="4.727089544758201">
        <ele>85.319999999999993</ele>
        <time>2023-04-16T12:02:24Z</time>
      </trkpt>
      <trkpt lat="50.721876695752144" lon="4.726458387449384">
        <ele>84.659999999999997</ele>
        <time>2023-04-16T12:02:51Z</time>
      </trkpt>
      <trkpt lat="50.721957162022591" lon="4.725850196555257">
        <ele>85.269999999999996</ele>
        <time>2023-04-16T12:03:17Z</time>
      </trkpt>
      <trkpt lat="50.722049279138446" lon="4.725177045911551">
        <ele>83.569999999999993</ele>
        <time>2023-04-16T12:03:46Z</time>
      </trkpt>
      <trkpt lat="50.722127901390195" lon="4.724501632153988">
        <ele>82.530000000000001</ele>
        <time>2023-04-16T12:04:14Z</time>
      </trkpt>
      <trkpt lat="50.722227813676" lon="4.723812723532319">
        <ele>81.549999999999997</ele>
        <time>2023-04-16T12:04:43Z</time>
      </trkpt>
      <trkpt lat="50.722304843366146" lon="4.723048126325011">
        <ele>80.150000000000006</ele>
        <time>2023-04-16T12:05:13Z</time>
      </trkpt>
      <trkpt lat="50.722286822274327" lon="4.722384950146079">
        <ele>80.099999999999994</ele>
        <time>2023-04-16T12:05:39Z</time>
      </trkpt>
      <trkpt lat="50.722329989075661" lon="4.721697885543108">
        <ele>79.75</ele>
        <time>2023-04-16T12:06:07Z</time>
      </trkpt>
      <trkpt lat="50.722407605499029" lon="4.7211888525635">
        <ele>78.620000000000005</ele>
        <time>2023-04-16T12:06:30Z</time>
      </trkpt>
      <trkpt lat="50.722422190010548" lon="4.720696667209268">
        <ele>78.010000000000005</ele>
        <time>2023-04-16T12:06:52Z</time>
      </trkpt>
      <trkpt lat="50.722383549436927" lon="4.72023943439126">
        <ele>77.200000000000003</ele>
        <time>2023-04-16T12:07:14Z</time>
      </trkpt>
      <trkpt lat="50.72226645424962" lon="4.72003223374486">
        <ele>76.739999999999995</ele>
        <time>2023-04-16T12:07:27Z</time>
      </trkpt>
      <trkpt lat="50.722040645778179" lon="4.719933662563562">
        <ele>76.409999999999997</ele>
        <time>2023-04-16T12:07:42Z</time>
      </trkpt>
      <trkpt lat="50.721759181469679" lon="4.719838863238692">
        <ele>75.549999999999997</ele>
        <time>2023-04-16T12:08:00Z</time>
      </trkpt>
      <trkpt lat="50.721457013860345" lon="4.719648761674762">
        <ele>73.969999999999999</ele>
        <time>2023-04-16T12:08:21Z</time>
      </trkpt>
      <trkpt lat="50.721189128234982" lon="4.719423959031701">
        <ele>72.329999999999998</ele>
        <time>2023-04-16T12:08:41Z</time>
      </trkpt>
      <trkpt lat="50.720900790765882" lon="4.719331590458751">
        <ele>71.219999999999999</ele>
        <time>2023-04-16T12:09:01Z</time>
      </trkpt>
      <trkpt lat="50.72075410746038" lon="4.719343576580286">
        <ele>70.540000000000006</ele>
        <time>2023-04-16T12:09:17Z</time>
      </trkpt>
      <trkpt lat="50.720650758594275" lon="4.719375595450401">
        <ele>70.189999999999998</ele>
        <time>2023-04-16T12:09:34Z</time>
      </trkpt>
      <trkpt lat="50.720444899052382" lon="4.719683630391955">
        <ele>69.969999999999999</ele>
        <time>2023-04-16T12:09:53Z</time>
      </trkpt>
      <trkpt lat="50.720211798325181" lon="4.71996434032917">
        <ele>70.420000000000002</ele>
        <time>2023-04-16T12:10:13Z</time>
      </trkpt>
      <trkpt lat="50.719938883557916" lon="4.720222419127822">
        <ele>70.5</ele>
        <time>2023-04-16T12:10:33Z</time>
      </trkpt>
      <trkpt lat="50.719730341807008" lon="4.720384944230318">
        <ele>70.390000000000001</ele>
        <time>2023-04-16T12:10:48Z</time>
      </trkpt>
      <trkpt lat="50.719657586887479" lon="4.720423249527812">
        <ele>70.810000000000002</ele>
        <time>2023-04-16T12:10:54Z</time>
      </trkpt>
      <trkpt lat="50.719626657664776" lon="4.720429703593254">
        <ele>71.159999999999997</ele>
        <time>2023-04-16T12:11:07Z</time>
      </trkpt>
      <trkpt lat="50.719343349337578" lon="4.720615446567535">
        <ele>71.120000000000005</ele>
        <time>2023-04-16T12:11:20Z</time>
      </trkpt>
      <trkpt lat="50.719118462875485" lon="4.720631707459688">
        <ele>71.680000000000007</ele>
        <time>2023-04-16T12:11:35Z</time>
      </trkpt>
    </trkseg>
  </trk>

</gpx>